<?xml version="1.0" encoding="UTF-8" standalone="no" ?>
<gpx xmlns="http://www.topografix.com/GPX/1/1" xmlns:xsi="http://www.w3.org/2001/XMLSchema-instance" xsi:schemaLocation="http://www.topografix.com/GPX/1/1 http://www.topografix.com/GPX/1/1/gpx.xsd" version="1.1" creator="VisuGPX - https://www.visugpx.com">
  <metadata>
    <name>Rhône-Parc Tête d'Or</name>
    <desc><![CDATA[A faire à pied, en courant, en vélo ou rollers...]]></desc>
  </metadata>
  <trk>
    <name><![CDATA[Sequence 1]]></name>
    <trkseg>
      <trkpt lat="45.75449" lon="4.82874">
        <ele>149</ele>
        <time>2016-09-08T04:58:03Z</time>
      </trkpt>
      <trkpt lat="45.75443" lon="4.82872">
        <ele>150</ele>
        <time>2016-09-08T04:58:05Z</time>
      </trkpt>
      <trkpt lat="45.75433" lon="4.82871">
        <ele>156</ele>
        <time>2016-09-08T04:58:13Z</time>
      </trkpt>
      <trkpt lat="45.75393" lon="4.82906">
        <ele>165</ele>
        <time>2016-09-08T04:58:22Z</time>
      </trkpt>
      <trkpt lat="45.75372" lon="4.82919">
        <ele>164</ele>
        <time>2016-09-08T04:58:30Z</time>
      </trkpt>
      <trkpt lat="45.75367" lon="4.82943">
        <ele>165</ele>
        <time>2016-09-08T04:58:39Z</time>
      </trkpt>
      <trkpt lat="45.75371" lon="4.8295">
        <ele>161</ele>
        <time>2016-09-08T04:58:41Z</time>
      </trkpt>
      <trkpt lat="45.75377" lon="4.82964">
        <ele>166</ele>
        <time>2016-09-08T04:58:46Z</time>
      </trkpt>
      <trkpt lat="45.754" lon="4.8298">
        <ele>168</ele>
        <time>2016-09-08T04:58:56Z</time>
      </trkpt>
      <trkpt lat="45.75402" lon="4.82977">
        <ele>169</ele>
        <time>2016-09-08T04:58:58Z</time>
      </trkpt>
      <trkpt lat="45.75418" lon="4.82986">
        <ele>164</ele>
        <time>2016-09-08T04:59:09Z</time>
      </trkpt>
      <trkpt lat="45.7542" lon="4.82988">
        <ele>165</ele>
        <time>2016-09-08T04:59:10Z</time>
      </trkpt>
      <trkpt lat="45.7543" lon="4.83">
        <ele>159</ele>
        <time>2016-09-08T04:59:17Z</time>
      </trkpt>
      <trkpt lat="45.75438" lon="4.82998">
        <ele>159</ele>
        <time>2016-09-08T04:59:22Z</time>
      </trkpt>
      <trkpt lat="45.75457" lon="4.83023">
        <ele>153</ele>
        <time>2016-09-08T04:59:33Z</time>
      </trkpt>
      <trkpt lat="45.75464" lon="4.83027">
        <ele>160</ele>
        <time>2016-09-08T04:59:39Z</time>
      </trkpt>
      <trkpt lat="45.75465" lon="4.8303">
        <ele>158</ele>
        <time>2016-09-08T04:59:40Z</time>
      </trkpt>
      <trkpt lat="45.75463" lon="4.83054">
        <ele>159</ele>
        <time>2016-09-08T04:59:48Z</time>
      </trkpt>
      <trkpt lat="45.75449" lon="4.83068">
        <ele>167</ele>
        <time>2016-09-08T04:59:57Z</time>
      </trkpt>
      <trkpt lat="45.75448" lon="4.83069">
        <ele>168</ele>
        <time>2016-09-08T04:59:58Z</time>
      </trkpt>
      <trkpt lat="45.75443" lon="4.83079">
        <ele>168</ele>
        <time>2016-09-08T05:00:04Z</time>
      </trkpt>
      <trkpt lat="45.75438" lon="4.83089">
        <ele>169</ele>
        <time>2016-09-08T05:00:11Z</time>
      </trkpt>
      <trkpt lat="45.75435" lon="4.83102">
        <ele>165</ele>
        <time>2016-09-08T05:00:16Z</time>
      </trkpt>
      <trkpt lat="45.75429" lon="4.83115">
        <ele>165</ele>
        <time>2016-09-08T05:00:22Z</time>
      </trkpt>
      <trkpt lat="45.75412" lon="4.8313">
        <ele>169</ele>
        <time>2016-09-08T05:00:33Z</time>
      </trkpt>
      <trkpt lat="45.75408" lon="4.8314">
        <ele>169</ele>
        <time>2016-09-08T05:00:39Z</time>
      </trkpt>
      <trkpt lat="45.75409" lon="4.83152">
        <ele>170</ele>
        <time>2016-09-08T05:00:43Z</time>
      </trkpt>
      <trkpt lat="45.75408" lon="4.8317">
        <ele>169</ele>
        <time>2016-09-08T05:00:50Z</time>
      </trkpt>
      <trkpt lat="45.75407" lon="4.83174">
        <ele>166</ele>
        <time>2016-09-08T05:00:52Z</time>
      </trkpt>
      <trkpt lat="45.75405" lon="4.8319">
        <ele>158</ele>
        <time>2016-09-08T05:00:59Z</time>
      </trkpt>
      <trkpt lat="45.75395" lon="4.83201">
        <ele>157</ele>
        <time>2016-09-08T05:01:07Z</time>
      </trkpt>
      <trkpt lat="45.75391" lon="4.83216">
        <ele>161</ele>
        <time>2016-09-08T05:01:12Z</time>
      </trkpt>
      <trkpt lat="45.75389" lon="4.83232">
        <ele>162</ele>
        <time>2016-09-08T05:01:18Z</time>
      </trkpt>
      <trkpt lat="45.75388" lon="4.83246">
        <ele>164</ele>
        <time>2016-09-08T05:01:24Z</time>
      </trkpt>
      <trkpt lat="45.75373" lon="4.83258">
        <ele>166</ele>
        <time>2016-09-08T05:01:33Z</time>
      </trkpt>
      <trkpt lat="45.75356" lon="4.83267">
        <ele>164</ele>
        <time>2016-09-08T05:01:41Z</time>
      </trkpt>
      <trkpt lat="45.75354" lon="4.8327">
        <ele>161</ele>
        <time>2016-09-08T05:01:43Z</time>
      </trkpt>
      <trkpt lat="45.7534" lon="4.83288">
        <ele>169</ele>
        <time>2016-09-08T05:01:52Z</time>
      </trkpt>
      <trkpt lat="45.75348" lon="4.8331">
        <ele>170</ele>
        <time>2016-09-08T05:01:58Z</time>
      </trkpt>
      <trkpt lat="45.75351" lon="4.83315">
        <ele>170</ele>
        <time>2016-09-08T05:02:00Z</time>
      </trkpt>
      <trkpt lat="45.75353" lon="4.83329">
        <ele>171</ele>
        <time>2016-09-08T05:02:06Z</time>
      </trkpt>
      <trkpt lat="45.75347" lon="4.83348">
        <ele>173</ele>
        <time>2016-09-08T05:02:14Z</time>
      </trkpt>
      <trkpt lat="45.75337" lon="4.83361">
        <ele>164</ele>
        <time>2016-09-08T05:02:22Z</time>
      </trkpt>
      <trkpt lat="45.75336" lon="4.83367">
        <ele>163</ele>
        <time>2016-09-08T05:02:25Z</time>
      </trkpt>
      <trkpt lat="45.75324" lon="4.8338">
        <ele>170</ele>
        <time>2016-09-08T05:02:34Z</time>
      </trkpt>
      <trkpt lat="45.75322" lon="4.83384">
        <ele>170</ele>
        <time>2016-09-08T05:02:36Z</time>
      </trkpt>
      <trkpt lat="45.75321" lon="4.83383">
        <ele>170</ele>
        <time>2016-09-08T05:02:42Z</time>
      </trkpt>
      <trkpt lat="45.7532" lon="4.83384">
        <ele>169</ele>
        <time>2016-09-08T05:02:48Z</time>
      </trkpt>
      <trkpt lat="45.75319" lon="4.83383">
        <ele>170</ele>
        <time>2016-09-08T05:02:54Z</time>
      </trkpt>
      <trkpt lat="45.75319" lon="4.83382">
        <ele>170</ele>
        <time>2016-09-08T05:03:00Z</time>
      </trkpt>
      <trkpt lat="45.75319" lon="4.83382">
        <ele>170</ele>
        <time>2016-09-08T05:03:06Z</time>
      </trkpt>
      <trkpt lat="45.75319" lon="4.83382">
        <ele>170</ele>
        <time>2016-09-08T05:03:12Z</time>
      </trkpt>
      <trkpt lat="45.75319" lon="4.83382">
        <ele>170</ele>
        <time>2016-09-08T05:03:18Z</time>
      </trkpt>
      <trkpt lat="45.75319" lon="4.83382">
        <ele>170</ele>
        <time>2016-09-08T05:03:24Z</time>
      </trkpt>
      <trkpt lat="45.75319" lon="4.83382">
        <ele>170</ele>
        <time>2016-09-08T05:03:30Z</time>
      </trkpt>
      <trkpt lat="45.75315" lon="4.83392">
        <ele>170</ele>
        <time>2016-09-08T05:03:36Z</time>
      </trkpt>
      <trkpt lat="45.75311" lon="4.83408">
        <ele>170</ele>
        <time>2016-09-08T05:03:43Z</time>
      </trkpt>
      <trkpt lat="45.75309" lon="4.8342">
        <ele>171</ele>
        <time>2016-09-08T05:03:48Z</time>
      </trkpt>
      <trkpt lat="45.75305" lon="4.83433">
        <ele>170</ele>
        <time>2016-09-08T05:03:54Z</time>
      </trkpt>
      <trkpt lat="45.75299" lon="4.83443">
        <ele>170</ele>
        <time>2016-09-08T05:04:00Z</time>
      </trkpt>
      <trkpt lat="45.75293" lon="4.83455">
        <ele>172</ele>
        <time>2016-09-08T05:04:06Z</time>
      </trkpt>
      <trkpt lat="45.75289" lon="4.83467">
        <ele>171</ele>
        <time>2016-09-08T05:04:12Z</time>
      </trkpt>
      <trkpt lat="45.75282" lon="4.83479">
        <ele>169</ele>
        <time>2016-09-08T05:04:18Z</time>
      </trkpt>
      <trkpt lat="45.75275" lon="4.83489">
        <ele>168</ele>
        <time>2016-09-08T05:04:24Z</time>
      </trkpt>
      <trkpt lat="45.75271" lon="4.83502">
        <ele>172</ele>
        <time>2016-09-08T05:04:30Z</time>
      </trkpt>
      <trkpt lat="45.75267" lon="4.83515">
        <ele>171</ele>
        <time>2016-09-08T05:04:36Z</time>
      </trkpt>
      <trkpt lat="45.7526" lon="4.83538">
        <ele>169</ele>
        <time>2016-09-08T05:04:47Z</time>
      </trkpt>
      <trkpt lat="45.75259" lon="4.83541">
        <ele>170</ele>
        <time>2016-09-08T05:04:48Z</time>
      </trkpt>
      <trkpt lat="45.75253" lon="4.83555">
        <ele>171</ele>
        <time>2016-09-08T05:04:54Z</time>
      </trkpt>
      <trkpt lat="45.75247" lon="4.83571">
        <ele>171</ele>
        <time>2016-09-08T05:05:01Z</time>
      </trkpt>
      <trkpt lat="45.75242" lon="4.83583">
        <ele>169</ele>
        <time>2016-09-08T05:05:06Z</time>
      </trkpt>
      <trkpt lat="45.75236" lon="4.83597">
        <ele>169</ele>
        <time>2016-09-08T05:05:12Z</time>
      </trkpt>
      <trkpt lat="45.75232" lon="4.83613">
        <ele>172</ele>
        <time>2016-09-08T05:05:19Z</time>
      </trkpt>
      <trkpt lat="45.75227" lon="4.83629">
        <ele>172</ele>
        <time>2016-09-08T05:05:26Z</time>
      </trkpt>
      <trkpt lat="45.75225" lon="4.83637">
        <ele>172</ele>
        <time>2016-09-08T05:05:30Z</time>
      </trkpt>
      <trkpt lat="45.7522" lon="4.83655">
        <ele>171</ele>
        <time>2016-09-08T05:05:39Z</time>
      </trkpt>
      <trkpt lat="45.75218" lon="4.8366">
        <ele>171</ele>
        <time>2016-09-08T05:05:42Z</time>
      </trkpt>
      <trkpt lat="45.75214" lon="4.83672">
        <ele>170</ele>
        <time>2016-09-08T05:05:48Z</time>
      </trkpt>
      <trkpt lat="45.7521" lon="4.83684">
        <ele>172</ele>
        <time>2016-09-08T05:05:54Z</time>
      </trkpt>
      <trkpt lat="45.75223" lon="4.83697">
        <ele>171</ele>
        <time>2016-09-08T05:06:04Z</time>
      </trkpt>
      <trkpt lat="45.75226" lon="4.83699">
        <ele>170</ele>
        <time>2016-09-08T05:06:06Z</time>
      </trkpt>
      <trkpt lat="45.75234" lon="4.83707">
        <ele>168</ele>
        <time>2016-09-08T05:06:12Z</time>
      </trkpt>
      <trkpt lat="45.75236" lon="4.83702">
        <ele>168</ele>
        <time>2016-09-08T05:06:18Z</time>
      </trkpt>
      <trkpt lat="45.75232" lon="4.83694">
        <ele>163</ele>
        <time>2016-09-08T05:06:24Z</time>
      </trkpt>
      <trkpt lat="45.75227" lon="4.83684">
        <ele>163</ele>
        <time>2016-09-08T05:06:31Z</time>
      </trkpt>
      <trkpt lat="45.75231" lon="4.83674">
        <ele>162</ele>
        <time>2016-09-08T05:06:36Z</time>
      </trkpt>
      <trkpt lat="45.75242" lon="4.83669">
        <ele>161</ele>
        <time>2016-09-08T05:06:42Z</time>
      </trkpt>
      <trkpt lat="45.75257" lon="4.83669">
        <ele>159</ele>
        <time>2016-09-08T05:06:51Z</time>
      </trkpt>
      <trkpt lat="45.75262" lon="4.83671">
        <ele>159</ele>
        <time>2016-09-08T05:06:54Z</time>
      </trkpt>
      <trkpt lat="45.75271" lon="4.83676">
        <ele>159</ele>
        <time>2016-09-08T05:07:00Z</time>
      </trkpt>
      <trkpt lat="45.7528" lon="4.83684">
        <ele>162</ele>
        <time>2016-09-08T05:07:06Z</time>
      </trkpt>
      <trkpt lat="45.75291" lon="4.83691">
        <ele>164</ele>
        <time>2016-09-08T05:07:14Z</time>
      </trkpt>
      <trkpt lat="45.75297" lon="4.83695">
        <ele>165</ele>
        <time>2016-09-08T05:07:18Z</time>
      </trkpt>
      <trkpt lat="45.75306" lon="4.83701">
        <ele>166</ele>
        <time>2016-09-08T05:07:24Z</time>
      </trkpt>
      <trkpt lat="45.75315" lon="4.83708">
        <ele>167</ele>
        <time>2016-09-08T05:07:30Z</time>
      </trkpt>
      <trkpt lat="45.75327" lon="4.83718">
        <ele>166</ele>
        <time>2016-09-08T05:07:38Z</time>
      </trkpt>
      <trkpt lat="45.7534" lon="4.83729">
        <ele>166</ele>
        <time>2016-09-08T05:07:47Z</time>
      </trkpt>
      <trkpt lat="45.75342" lon="4.83731">
        <ele>166</ele>
        <time>2016-09-08T05:07:48Z</time>
      </trkpt>
      <trkpt lat="45.75351" lon="4.83738">
        <ele>166</ele>
        <time>2016-09-08T05:07:54Z</time>
      </trkpt>
      <trkpt lat="45.7536" lon="4.83745">
        <ele>167</ele>
        <time>2016-09-08T05:08:00Z</time>
      </trkpt>
      <trkpt lat="45.75369" lon="4.8375">
        <ele>168</ele>
        <time>2016-09-08T05:08:06Z</time>
      </trkpt>
      <trkpt lat="45.75379" lon="4.83758">
        <ele>168</ele>
        <time>2016-09-08T05:08:13Z</time>
      </trkpt>
      <trkpt lat="45.75386" lon="4.83764">
        <ele>166</ele>
        <time>2016-09-08T05:08:18Z</time>
      </trkpt>
      <trkpt lat="45.75398" lon="4.83773">
        <ele>165</ele>
        <time>2016-09-08T05:08:26Z</time>
      </trkpt>
      <trkpt lat="45.75405" lon="4.83778">
        <ele>166</ele>
        <time>2016-09-08T05:08:31Z</time>
      </trkpt>
      <trkpt lat="45.75416" lon="4.83786">
        <ele>167</ele>
        <time>2016-09-08T05:08:38Z</time>
      </trkpt>
      <trkpt lat="45.75422" lon="4.8379">
        <ele>167</ele>
        <time>2016-09-08T05:08:42Z</time>
      </trkpt>
      <trkpt lat="45.75432" lon="4.83797">
        <ele>166</ele>
        <time>2016-09-08T05:08:48Z</time>
      </trkpt>
      <trkpt lat="45.75441" lon="4.83803">
        <ele>165</ele>
        <time>2016-09-08T05:08:54Z</time>
      </trkpt>
      <trkpt lat="45.7545" lon="4.8381">
        <ele>164</ele>
        <time>2016-09-08T05:09:00Z</time>
      </trkpt>
      <trkpt lat="45.75459" lon="4.83816">
        <ele>163</ele>
        <time>2016-09-08T05:09:06Z</time>
      </trkpt>
      <trkpt lat="45.75468" lon="4.83824">
        <ele>162</ele>
        <time>2016-09-08T05:09:12Z</time>
      </trkpt>
      <trkpt lat="45.75477" lon="4.83829">
        <ele>162</ele>
        <time>2016-09-08T05:09:18Z</time>
      </trkpt>
      <trkpt lat="45.75485" lon="4.83835">
        <ele>162</ele>
        <time>2016-09-08T05:09:24Z</time>
      </trkpt>
      <trkpt lat="45.75494" lon="4.8384">
        <ele>163</ele>
        <time>2016-09-08T05:09:30Z</time>
      </trkpt>
      <trkpt lat="45.75503" lon="4.83848">
        <ele>160</ele>
        <time>2016-09-08T05:09:36Z</time>
      </trkpt>
      <trkpt lat="45.75514" lon="4.83855">
        <ele>160</ele>
        <time>2016-09-08T05:09:44Z</time>
      </trkpt>
      <trkpt lat="45.75521" lon="4.83858">
        <ele>161</ele>
        <time>2016-09-08T05:09:48Z</time>
      </trkpt>
      <trkpt lat="45.7553" lon="4.83863">
        <ele>161</ele>
        <time>2016-09-08T05:09:54Z</time>
      </trkpt>
      <trkpt lat="45.7554" lon="4.83871">
        <ele>162</ele>
        <time>2016-09-08T05:10:00Z</time>
      </trkpt>
      <trkpt lat="45.75548" lon="4.83879">
        <ele>163</ele>
        <time>2016-09-08T05:10:06Z</time>
      </trkpt>
      <trkpt lat="45.75557" lon="4.83888">
        <ele>163</ele>
        <time>2016-09-08T05:10:12Z</time>
      </trkpt>
      <trkpt lat="45.75566" lon="4.83894">
        <ele>164</ele>
        <time>2016-09-08T05:10:18Z</time>
      </trkpt>
      <trkpt lat="45.75576" lon="4.839">
        <ele>164</ele>
        <time>2016-09-08T05:10:24Z</time>
      </trkpt>
      <trkpt lat="45.75585" lon="4.83906">
        <ele>163</ele>
        <time>2016-09-08T05:10:30Z</time>
      </trkpt>
      <trkpt lat="45.75595" lon="4.83911">
        <ele>164</ele>
        <time>2016-09-08T05:10:36Z</time>
      </trkpt>
      <trkpt lat="45.75605" lon="4.83916">
        <ele>164</ele>
        <time>2016-09-08T05:10:42Z</time>
      </trkpt>
      <trkpt lat="45.75614" lon="4.83921">
        <ele>163</ele>
        <time>2016-09-08T05:10:48Z</time>
      </trkpt>
      <trkpt lat="45.75623" lon="4.83928">
        <ele>162</ele>
        <time>2016-09-08T05:10:54Z</time>
      </trkpt>
      <trkpt lat="45.75633" lon="4.83936">
        <ele>162</ele>
        <time>2016-09-08T05:11:01Z</time>
      </trkpt>
      <trkpt lat="45.7564" lon="4.83937">
        <ele>160</ele>
        <time>2016-09-08T05:11:06Z</time>
      </trkpt>
      <trkpt lat="45.75648" lon="4.83949">
        <ele>157</ele>
        <time>2016-09-08T05:11:13Z</time>
      </trkpt>
      <trkpt lat="45.75658" lon="4.83956">
        <ele>156</ele>
        <time>2016-09-08T05:11:23Z</time>
      </trkpt>
      <trkpt lat="45.75666" lon="4.83958">
        <ele>158</ele>
        <time>2016-09-08T05:11:29Z</time>
      </trkpt>
      <trkpt lat="45.75679" lon="4.83961">
        <ele>161</ele>
        <time>2016-09-08T05:11:35Z</time>
      </trkpt>
      <trkpt lat="45.75681" lon="4.83962">
        <ele>161</ele>
        <time>2016-09-08T05:11:36Z</time>
      </trkpt>
      <trkpt lat="45.75696" lon="4.83967">
        <ele>161</ele>
        <time>2016-09-08T05:11:44Z</time>
      </trkpt>
      <trkpt lat="45.75703" lon="4.8397">
        <ele>161</ele>
        <time>2016-09-08T05:11:48Z</time>
      </trkpt>
      <trkpt lat="45.75714" lon="4.83975">
        <ele>160</ele>
        <time>2016-09-08T05:11:54Z</time>
      </trkpt>
      <trkpt lat="45.75723" lon="4.83979">
        <ele>160</ele>
        <time>2016-09-08T05:12:00Z</time>
      </trkpt>
      <trkpt lat="45.75733" lon="4.83983">
        <ele>161</ele>
        <time>2016-09-08T05:12:06Z</time>
      </trkpt>
      <trkpt lat="45.75743" lon="4.83986">
        <ele>161</ele>
        <time>2016-09-08T05:12:12Z</time>
      </trkpt>
      <trkpt lat="45.75753" lon="4.83991">
        <ele>161</ele>
        <time>2016-09-08T05:12:18Z</time>
      </trkpt>
      <trkpt lat="45.75764" lon="4.83997">
        <ele>161</ele>
        <time>2016-09-08T05:12:25Z</time>
      </trkpt>
      <trkpt lat="45.75773" lon="4.84002">
        <ele>160</ele>
        <time>2016-09-08T05:12:31Z</time>
      </trkpt>
      <trkpt lat="45.75782" lon="4.84004">
        <ele>160</ele>
        <time>2016-09-08T05:12:37Z</time>
      </trkpt>
      <trkpt lat="45.75799" lon="4.84009">
        <ele>160</ele>
        <time>2016-09-08T05:12:47Z</time>
      </trkpt>
      <trkpt lat="45.75802" lon="4.8401">
        <ele>160</ele>
        <time>2016-09-08T05:12:49Z</time>
      </trkpt>
      <trkpt lat="45.75812" lon="4.84014">
        <ele>161</ele>
        <time>2016-09-08T05:12:55Z</time>
      </trkpt>
      <trkpt lat="45.75827" lon="4.8402">
        <ele>160</ele>
        <time>2016-09-08T05:13:04Z</time>
      </trkpt>
      <trkpt lat="45.75832" lon="4.84021">
        <ele>160</ele>
        <time>2016-09-08T05:13:07Z</time>
      </trkpt>
      <trkpt lat="45.75841" lon="4.84023">
        <ele>159</ele>
        <time>2016-09-08T05:13:13Z</time>
      </trkpt>
      <trkpt lat="45.75851" lon="4.84024">
        <ele>160</ele>
        <time>2016-09-08T05:13:19Z</time>
      </trkpt>
      <trkpt lat="45.75861" lon="4.84025">
        <ele>159</ele>
        <time>2016-09-08T05:13:25Z</time>
      </trkpt>
      <trkpt lat="45.75871" lon="4.84026">
        <ele>159</ele>
        <time>2016-09-08T05:13:31Z</time>
      </trkpt>
      <trkpt lat="45.75881" lon="4.84027">
        <ele>160</ele>
        <time>2016-09-08T05:13:37Z</time>
      </trkpt>
      <trkpt lat="45.75892" lon="4.84027">
        <ele>160</ele>
        <time>2016-09-08T05:13:43Z</time>
      </trkpt>
      <trkpt lat="45.75902" lon="4.84028">
        <ele>160</ele>
        <time>2016-09-08T05:13:49Z</time>
      </trkpt>
      <trkpt lat="45.75916" lon="4.84029">
        <ele>161</ele>
        <time>2016-09-08T05:13:57Z</time>
      </trkpt>
      <trkpt lat="45.75925" lon="4.8403">
        <ele>162</ele>
        <time>2016-09-08T05:14:02Z</time>
      </trkpt>
      <trkpt lat="45.75932" lon="4.8403">
        <ele>162</ele>
        <time>2016-09-08T05:14:07Z</time>
      </trkpt>
      <trkpt lat="45.75942" lon="4.84032">
        <ele>160</ele>
        <time>2016-09-08T05:14:13Z</time>
      </trkpt>
      <trkpt lat="45.75956" lon="4.84033">
        <ele>162</ele>
        <time>2016-09-08T05:14:21Z</time>
      </trkpt>
      <trkpt lat="45.75963" lon="4.84034">
        <ele>162</ele>
        <time>2016-09-08T05:14:25Z</time>
      </trkpt>
      <trkpt lat="45.75973" lon="4.84038">
        <ele>160</ele>
        <time>2016-09-08T05:14:31Z</time>
      </trkpt>
      <trkpt lat="45.75983" lon="4.8404">
        <ele>159</ele>
        <time>2016-09-08T05:14:37Z</time>
      </trkpt>
      <trkpt lat="45.75992" lon="4.84041">
        <ele>159</ele>
        <time>2016-09-08T05:14:43Z</time>
      </trkpt>
      <trkpt lat="45.76003" lon="4.84041">
        <ele>158</ele>
        <time>2016-09-08T05:14:49Z</time>
      </trkpt>
      <trkpt lat="45.76021" lon="4.84044">
        <ele>156</ele>
        <time>2016-09-08T05:14:59Z</time>
      </trkpt>
      <trkpt lat="45.76028" lon="4.84045">
        <ele>158</ele>
        <time>2016-09-08T05:15:04Z</time>
      </trkpt>
      <trkpt lat="45.76033" lon="4.84046">
        <ele>160</ele>
        <time>2016-09-08T05:15:07Z</time>
      </trkpt>
      <trkpt lat="45.76043" lon="4.84048">
        <ele>160</ele>
        <time>2016-09-08T05:15:13Z</time>
      </trkpt>
      <trkpt lat="45.76053" lon="4.8405">
        <ele>160</ele>
        <time>2016-09-08T05:15:19Z</time>
      </trkpt>
      <trkpt lat="45.76064" lon="4.84051">
        <ele>160</ele>
        <time>2016-09-08T05:15:25Z</time>
      </trkpt>
      <trkpt lat="45.76075" lon="4.84051">
        <ele>161</ele>
        <time>2016-09-08T05:15:31Z</time>
      </trkpt>
      <trkpt lat="45.76092" lon="4.84053">
        <ele>161</ele>
        <time>2016-09-08T05:15:41Z</time>
      </trkpt>
      <trkpt lat="45.76095" lon="4.84054">
        <ele>161</ele>
        <time>2016-09-08T05:15:43Z</time>
      </trkpt>
      <trkpt lat="45.76105" lon="4.84055">
        <ele>160</ele>
        <time>2016-09-08T05:15:49Z</time>
      </trkpt>
      <trkpt lat="45.7612" lon="4.84057">
        <ele>162</ele>
        <time>2016-09-08T05:15:58Z</time>
      </trkpt>
      <trkpt lat="45.76125" lon="4.84057">
        <ele>162</ele>
        <time>2016-09-08T05:16:01Z</time>
      </trkpt>
      <trkpt lat="45.76135" lon="4.84059">
        <ele>163</ele>
        <time>2016-09-08T05:16:07Z</time>
      </trkpt>
      <trkpt lat="45.76146" lon="4.8406">
        <ele>162</ele>
        <time>2016-09-08T05:16:13Z</time>
      </trkpt>
      <trkpt lat="45.76156" lon="4.84062">
        <ele>161</ele>
        <time>2016-09-08T05:16:19Z</time>
      </trkpt>
      <trkpt lat="45.76169" lon="4.84063">
        <ele>159</ele>
        <time>2016-09-08T05:16:26Z</time>
      </trkpt>
      <trkpt lat="45.76178" lon="4.84064">
        <ele>160</ele>
        <time>2016-09-08T05:16:31Z</time>
      </trkpt>
      <trkpt lat="45.76188" lon="4.84066">
        <ele>160</ele>
        <time>2016-09-08T05:16:37Z</time>
      </trkpt>
      <trkpt lat="45.76206" lon="4.84068">
        <ele>160</ele>
        <time>2016-09-08T05:16:48Z</time>
      </trkpt>
      <trkpt lat="45.76207" lon="4.84069">
        <ele>160</ele>
        <time>2016-09-08T05:16:49Z</time>
      </trkpt>
      <trkpt lat="45.76217" lon="4.84067">
        <ele>162</ele>
        <time>2016-09-08T05:16:55Z</time>
      </trkpt>
      <trkpt lat="45.76227" lon="4.84068">
        <ele>162</ele>
        <time>2016-09-08T05:17:01Z</time>
      </trkpt>
      <trkpt lat="45.76237" lon="4.84069">
        <ele>162</ele>
        <time>2016-09-08T05:17:07Z</time>
      </trkpt>
      <trkpt lat="45.76251" lon="4.84071">
        <ele>162</ele>
        <time>2016-09-08T05:17:15Z</time>
      </trkpt>
      <trkpt lat="45.76258" lon="4.84071">
        <ele>164</ele>
        <time>2016-09-08T05:17:19Z</time>
      </trkpt>
      <trkpt lat="45.76267" lon="4.84072">
        <ele>165</ele>
        <time>2016-09-08T05:17:25Z</time>
      </trkpt>
      <trkpt lat="45.7628" lon="4.84073">
        <ele>165</ele>
        <time>2016-09-08T05:17:33Z</time>
      </trkpt>
      <trkpt lat="45.76289" lon="4.84074">
        <ele>166</ele>
        <time>2016-09-08T05:17:38Z</time>
      </trkpt>
      <trkpt lat="45.76303" lon="4.84077">
        <ele>164</ele>
        <time>2016-09-08T05:17:46Z</time>
      </trkpt>
      <trkpt lat="45.76309" lon="4.84078">
        <ele>164</ele>
        <time>2016-09-08T05:17:50Z</time>
      </trkpt>
      <trkpt lat="45.76319" lon="4.84079">
        <ele>165</ele>
        <time>2016-09-08T05:17:56Z</time>
      </trkpt>
      <trkpt lat="45.76333" lon="4.84083">
        <ele>164</ele>
        <time>2016-09-08T05:18:04Z</time>
      </trkpt>
      <trkpt lat="45.7634" lon="4.84084">
        <ele>165</ele>
        <time>2016-09-08T05:18:08Z</time>
      </trkpt>
      <trkpt lat="45.76348" lon="4.84087">
        <ele>166</ele>
        <time>2016-09-08T05:18:14Z</time>
      </trkpt>
      <trkpt lat="45.76367" lon="4.84085">
        <ele>161</ele>
        <time>2016-09-08T05:18:25Z</time>
      </trkpt>
      <trkpt lat="45.76377" lon="4.84085">
        <ele>163</ele>
        <time>2016-09-08T05:18:31Z</time>
      </trkpt>
      <trkpt lat="45.76386" lon="4.84088">
        <ele>163</ele>
        <time>2016-09-08T05:18:36Z</time>
      </trkpt>
      <trkpt lat="45.7639" lon="4.84089">
        <ele>162</ele>
        <time>2016-09-08T05:18:38Z</time>
      </trkpt>
      <trkpt lat="45.76401" lon="4.8409">
        <ele>162</ele>
        <time>2016-09-08T05:18:44Z</time>
      </trkpt>
      <trkpt lat="45.76412" lon="4.84091">
        <ele>162</ele>
        <time>2016-09-08T05:18:50Z</time>
      </trkpt>
      <trkpt lat="45.76426" lon="4.84092">
        <ele>164</ele>
        <time>2016-09-08T05:18:58Z</time>
      </trkpt>
      <trkpt lat="45.76433" lon="4.84092">
        <ele>164</ele>
        <time>2016-09-08T05:19:02Z</time>
      </trkpt>
      <trkpt lat="45.76443" lon="4.84091">
        <ele>166</ele>
        <time>2016-09-08T05:19:08Z</time>
      </trkpt>
      <trkpt lat="45.76453" lon="4.84092">
        <ele>167</ele>
        <time>2016-09-08T05:19:14Z</time>
      </trkpt>
      <trkpt lat="45.76463" lon="4.84093">
        <ele>167</ele>
        <time>2016-09-08T05:19:20Z</time>
      </trkpt>
      <trkpt lat="45.76474" lon="4.84095">
        <ele>167</ele>
        <time>2016-09-08T05:19:26Z</time>
      </trkpt>
      <trkpt lat="45.76485" lon="4.84095">
        <ele>166</ele>
        <time>2016-09-08T05:19:32Z</time>
      </trkpt>
      <trkpt lat="45.76495" lon="4.84097">
        <ele>166</ele>
        <time>2016-09-08T05:19:38Z</time>
      </trkpt>
      <trkpt lat="45.76505" lon="4.84096">
        <ele>166</ele>
        <time>2016-09-08T05:19:44Z</time>
      </trkpt>
      <trkpt lat="45.76515" lon="4.84095">
        <ele>166</ele>
        <time>2016-09-08T05:19:50Z</time>
      </trkpt>
      <trkpt lat="45.76525" lon="4.84094">
        <ele>166</ele>
        <time>2016-09-08T05:19:56Z</time>
      </trkpt>
      <trkpt lat="45.76535" lon="4.84096">
        <ele>165</ele>
        <time>2016-09-08T05:20:02Z</time>
      </trkpt>
      <trkpt lat="45.76548" lon="4.84096">
        <ele>165</ele>
        <time>2016-09-08T05:20:09Z</time>
      </trkpt>
      <trkpt lat="45.76556" lon="4.84097">
        <ele>164</ele>
        <time>2016-09-08T05:20:14Z</time>
      </trkpt>
      <trkpt lat="45.76566" lon="4.84097">
        <ele>164</ele>
        <time>2016-09-08T05:20:20Z</time>
      </trkpt>
      <trkpt lat="45.76576" lon="4.84095">
        <ele>163</ele>
        <time>2016-09-08T05:20:26Z</time>
      </trkpt>
      <trkpt lat="45.76586" lon="4.84095">
        <ele>164</ele>
        <time>2016-09-08T05:20:32Z</time>
      </trkpt>
      <trkpt lat="45.76598" lon="4.84095">
        <ele>164</ele>
        <time>2016-09-08T05:20:39Z</time>
      </trkpt>
      <trkpt lat="45.76606" lon="4.84092">
        <ele>166</ele>
        <time>2016-09-08T05:20:44Z</time>
      </trkpt>
      <trkpt lat="45.76618" lon="4.84092">
        <ele>164</ele>
        <time>2016-09-08T05:20:51Z</time>
      </trkpt>
      <trkpt lat="45.76626" lon="4.84091">
        <ele>164</ele>
        <time>2016-09-08T05:20:56Z</time>
      </trkpt>
      <trkpt lat="45.7664" lon="4.84087">
        <ele>164</ele>
        <time>2016-09-08T05:21:04Z</time>
      </trkpt>
      <trkpt lat="45.76647" lon="4.84086">
        <ele>164</ele>
        <time>2016-09-08T05:21:08Z</time>
      </trkpt>
      <trkpt lat="45.76661" lon="4.84084">
        <ele>164</ele>
        <time>2016-09-08T05:21:16Z</time>
      </trkpt>
      <trkpt lat="45.76669" lon="4.84084">
        <ele>164</ele>
        <time>2016-09-08T05:21:21Z</time>
      </trkpt>
      <trkpt lat="45.76678" lon="4.84083">
        <ele>164</ele>
        <time>2016-09-08T05:21:26Z</time>
      </trkpt>
      <trkpt lat="45.76696" lon="4.84077">
        <ele>164</ele>
        <time>2016-09-08T05:21:37Z</time>
      </trkpt>
      <trkpt lat="45.76698" lon="4.84076">
        <ele>163</ele>
        <time>2016-09-08T05:21:38Z</time>
      </trkpt>
      <trkpt lat="45.76713" lon="4.84076">
        <ele>162</ele>
        <time>2016-09-08T05:21:46Z</time>
      </trkpt>
      <trkpt lat="45.7672" lon="4.84076">
        <ele>161</ele>
        <time>2016-09-08T05:21:50Z</time>
      </trkpt>
      <trkpt lat="45.76734" lon="4.84077">
        <ele>162</ele>
        <time>2016-09-08T05:21:58Z</time>
      </trkpt>
      <trkpt lat="45.76741" lon="4.84074">
        <ele>162</ele>
        <time>2016-09-08T05:22:02Z</time>
      </trkpt>
      <trkpt lat="45.76751" lon="4.84073">
        <ele>162</ele>
        <time>2016-09-08T05:22:08Z</time>
      </trkpt>
      <trkpt lat="45.76761" lon="4.84071">
        <ele>163</ele>
        <time>2016-09-08T05:22:14Z</time>
      </trkpt>
      <trkpt lat="45.7678" lon="4.8407">
        <ele>165</ele>
        <time>2016-09-08T05:22:25Z</time>
      </trkpt>
      <trkpt lat="45.76781" lon="4.8407">
        <ele>167</ele>
        <time>2016-09-08T05:22:26Z</time>
      </trkpt>
      <trkpt lat="45.76799" lon="4.84068">
        <ele>168</ele>
        <time>2016-09-08T05:22:37Z</time>
      </trkpt>
      <trkpt lat="45.76801" lon="4.84067">
        <ele>168</ele>
        <time>2016-09-08T05:22:38Z</time>
      </trkpt>
      <trkpt lat="45.76811" lon="4.84068">
        <ele>165</ele>
        <time>2016-09-08T05:22:44Z</time>
      </trkpt>
      <trkpt lat="45.76825" lon="4.84063">
        <ele>165</ele>
        <time>2016-09-08T05:22:52Z</time>
      </trkpt>
      <trkpt lat="45.76835" lon="4.84063">
        <ele>166</ele>
        <time>2016-09-08T05:22:58Z</time>
      </trkpt>
      <trkpt lat="45.76843" lon="4.84063">
        <ele>167</ele>
        <time>2016-09-08T05:23:03Z</time>
      </trkpt>
      <trkpt lat="45.76851" lon="4.84062">
        <ele>165</ele>
        <time>2016-09-08T05:23:08Z</time>
      </trkpt>
      <trkpt lat="45.76857" lon="4.84067">
        <ele>164</ele>
        <time>2016-09-08T05:23:14Z</time>
      </trkpt>
      <trkpt lat="45.76876" lon="4.84067">
        <ele>163</ele>
        <time>2016-09-08T05:23:25Z</time>
      </trkpt>
      <trkpt lat="45.76885" lon="4.84066">
        <ele>164</ele>
        <time>2016-09-08T05:23:30Z</time>
      </trkpt>
      <trkpt lat="45.76889" lon="4.84065">
        <ele>164</ele>
        <time>2016-09-08T05:23:32Z</time>
      </trkpt>
      <trkpt lat="45.76901" lon="4.84063">
        <ele>165</ele>
        <time>2016-09-08T05:23:38Z</time>
      </trkpt>
      <trkpt lat="45.76922" lon="4.84065">
        <ele>163</ele>
        <time>2016-09-08T05:23:49Z</time>
      </trkpt>
      <trkpt lat="45.76927" lon="4.84064">
        <ele>164</ele>
        <time>2016-09-08T05:23:52Z</time>
      </trkpt>
      <trkpt lat="45.76934" lon="4.84062">
        <ele>165</ele>
        <time>2016-09-08T05:23:56Z</time>
      </trkpt>
      <trkpt lat="45.76944" lon="4.84062">
        <ele>164</ele>
        <time>2016-09-08T05:24:02Z</time>
      </trkpt>
      <trkpt lat="45.76952" lon="4.84059">
        <ele>165</ele>
        <time>2016-09-08T05:24:08Z</time>
      </trkpt>
      <trkpt lat="45.76968" lon="4.84059">
        <ele>167</ele>
        <time>2016-09-08T05:24:18Z</time>
      </trkpt>
      <trkpt lat="45.76976" lon="4.8406">
        <ele>164</ele>
        <time>2016-09-08T05:24:23Z</time>
      </trkpt>
      <trkpt lat="45.76982" lon="4.84061">
        <ele>163</ele>
        <time>2016-09-08T05:24:27Z</time>
      </trkpt>
      <trkpt lat="45.7699" lon="4.84062">
        <ele>164</ele>
        <time>2016-09-08T05:24:32Z</time>
      </trkpt>
      <trkpt lat="45.77006" lon="4.84065">
        <ele>167</ele>
        <time>2016-09-08T05:24:40Z</time>
      </trkpt>
      <trkpt lat="45.77015" lon="4.84063">
        <ele>164</ele>
        <time>2016-09-08T05:24:45Z</time>
      </trkpt>
      <trkpt lat="45.77029" lon="4.84063">
        <ele>168</ele>
        <time>2016-09-08T05:24:53Z</time>
      </trkpt>
      <trkpt lat="45.77034" lon="4.84062">
        <ele>170</ele>
        <time>2016-09-08T05:24:56Z</time>
      </trkpt>
      <trkpt lat="45.77045" lon="4.84061">
        <ele>170</ele>
        <time>2016-09-08T05:25:03Z</time>
      </trkpt>
      <trkpt lat="45.77056" lon="4.8406">
        <ele>170</ele>
        <time>2016-09-08T05:25:09Z</time>
      </trkpt>
      <trkpt lat="45.77068" lon="4.84062">
        <ele>168</ele>
        <time>2016-09-08T05:25:16Z</time>
      </trkpt>
      <trkpt lat="45.77075" lon="4.84061">
        <ele>169</ele>
        <time>2016-09-08T05:25:20Z</time>
      </trkpt>
      <trkpt lat="45.77086" lon="4.84064">
        <ele>165</ele>
        <time>2016-09-08T05:25:26Z</time>
      </trkpt>
      <trkpt lat="45.77103" lon="4.84065">
        <ele>161</ele>
        <time>2016-09-08T05:25:35Z</time>
      </trkpt>
      <trkpt lat="45.7711" lon="4.84064">
        <ele>163</ele>
        <time>2016-09-08T05:25:39Z</time>
      </trkpt>
      <trkpt lat="45.77125" lon="4.84065">
        <ele>164</ele>
        <time>2016-09-08T05:25:49Z</time>
      </trkpt>
      <trkpt lat="45.77132" lon="4.84067">
        <ele>165</ele>
        <time>2016-09-08T05:25:53Z</time>
      </trkpt>
      <trkpt lat="45.77137" lon="4.84067">
        <ele>166</ele>
        <time>2016-09-08T05:25:56Z</time>
      </trkpt>
      <trkpt lat="45.77152" lon="4.84069">
        <ele>167</ele>
        <time>2016-09-08T05:26:05Z</time>
      </trkpt>
      <trkpt lat="45.77164" lon="4.84069">
        <ele>168</ele>
        <time>2016-09-08T05:26:12Z</time>
      </trkpt>
      <trkpt lat="45.77169" lon="4.84069">
        <ele>168</ele>
        <time>2016-09-08T05:26:15Z</time>
      </trkpt>
      <trkpt lat="45.77178" lon="4.8407">
        <ele>169</ele>
        <time>2016-09-08T05:26:20Z</time>
      </trkpt>
      <trkpt lat="45.77188" lon="4.84069">
        <ele>166</ele>
        <time>2016-09-08T05:26:26Z</time>
      </trkpt>
      <trkpt lat="45.77202" lon="4.84067">
        <ele>166</ele>
        <time>2016-09-08T05:26:34Z</time>
      </trkpt>
      <trkpt lat="45.77209" lon="4.84064">
        <ele>165</ele>
        <time>2016-09-08T05:26:38Z</time>
      </trkpt>
      <trkpt lat="45.77218" lon="4.84066">
        <ele>164</ele>
        <time>2016-09-08T05:26:44Z</time>
      </trkpt>
      <trkpt lat="45.77261" lon="4.84077">
        <ele>165</ele>
        <time>2016-09-08T05:27:11Z</time>
      </trkpt>
      <trkpt lat="45.77278" lon="4.84076">
        <ele>173</ele>
        <time>2016-09-08T05:27:18Z</time>
      </trkpt>
      <trkpt lat="45.7728" lon="4.84076">
        <ele>173</ele>
        <time>2016-09-08T05:27:19Z</time>
      </trkpt>
      <trkpt lat="45.77292" lon="4.84083">
        <ele>169</ele>
        <time>2016-09-08T05:27:27Z</time>
      </trkpt>
      <trkpt lat="45.77299" lon="4.84086">
        <ele>170</ele>
        <time>2016-09-08T05:27:31Z</time>
      </trkpt>
      <trkpt lat="45.7731" lon="4.84091">
        <ele>171</ele>
        <time>2016-09-08T05:27:37Z</time>
      </trkpt>
      <trkpt lat="45.77316" lon="4.84101">
        <ele>170</ele>
        <time>2016-09-08T05:27:44Z</time>
      </trkpt>
      <trkpt lat="45.77329" lon="4.84106">
        <ele>173</ele>
        <time>2016-09-08T05:27:53Z</time>
      </trkpt>
      <trkpt lat="45.77332" lon="4.84109">
        <ele>172</ele>
        <time>2016-09-08T05:27:55Z</time>
      </trkpt>
      <trkpt lat="45.77344" lon="4.8412">
        <ele>171</ele>
        <time>2016-09-08T05:28:04Z</time>
      </trkpt>
      <trkpt lat="45.77352" lon="4.84124">
        <ele>171</ele>
        <time>2016-09-08T05:28:09Z</time>
      </trkpt>
      <trkpt lat="45.77359" lon="4.84126">
        <ele>173</ele>
        <time>2016-09-08T05:28:13Z</time>
      </trkpt>
      <trkpt lat="45.77376" lon="4.84139">
        <ele>169</ele>
        <time>2016-09-08T05:28:23Z</time>
      </trkpt>
      <trkpt lat="45.77379" lon="4.8414">
        <ele>171</ele>
        <time>2016-09-08T05:28:25Z</time>
      </trkpt>
      <trkpt lat="45.77389" lon="4.8415">
        <ele>171</ele>
        <time>2016-09-08T05:28:32Z</time>
      </trkpt>
      <trkpt lat="45.77398" lon="4.84154">
        <ele>170</ele>
        <time>2016-09-08T05:28:37Z</time>
      </trkpt>
      <trkpt lat="45.77408" lon="4.84161">
        <ele>169</ele>
        <time>2016-09-08T05:28:43Z</time>
      </trkpt>
      <trkpt lat="45.77424" lon="4.84169">
        <ele>168</ele>
        <time>2016-09-08T05:28:53Z</time>
      </trkpt>
      <trkpt lat="45.77428" lon="4.84171">
        <ele>168</ele>
        <time>2016-09-08T05:28:55Z</time>
      </trkpt>
      <trkpt lat="45.77436" lon="4.84178">
        <ele>168</ele>
        <time>2016-09-08T05:29:01Z</time>
      </trkpt>
      <trkpt lat="45.77446" lon="4.84183">
        <ele>163</ele>
        <time>2016-09-08T05:29:07Z</time>
      </trkpt>
      <trkpt lat="45.77462" lon="4.84192">
        <ele>170</ele>
        <time>2016-09-08T05:29:16Z</time>
      </trkpt>
      <trkpt lat="45.77467" lon="4.84196">
        <ele>167</ele>
        <time>2016-09-08T05:29:19Z</time>
      </trkpt>
      <trkpt lat="45.77476" lon="4.84202">
        <ele>164</ele>
        <time>2016-09-08T05:29:25Z</time>
      </trkpt>
      <trkpt lat="45.77484" lon="4.8421">
        <ele>166</ele>
        <time>2016-09-08T05:29:31Z</time>
      </trkpt>
      <trkpt lat="45.77494" lon="4.84219">
        <ele>167</ele>
        <time>2016-09-08T05:29:38Z</time>
      </trkpt>
      <trkpt lat="45.775" lon="4.84226">
        <ele>165</ele>
        <time>2016-09-08T05:29:43Z</time>
      </trkpt>
      <trkpt lat="45.77509" lon="4.84232">
        <ele>170</ele>
        <time>2016-09-08T05:29:49Z</time>
      </trkpt>
      <trkpt lat="45.77519" lon="4.84239">
        <ele>167</ele>
        <time>2016-09-08T05:29:55Z</time>
      </trkpt>
      <trkpt lat="45.77528" lon="4.84245">
        <ele>168</ele>
        <time>2016-09-08T05:30:01Z</time>
      </trkpt>
      <trkpt lat="45.7754" lon="4.84251">
        <ele>166</ele>
        <time>2016-09-08T05:30:09Z</time>
      </trkpt>
      <trkpt lat="45.77546" lon="4.84256">
        <ele>166</ele>
        <time>2016-09-08T05:30:13Z</time>
      </trkpt>
      <trkpt lat="45.77554" lon="4.84257">
        <ele>167</ele>
        <time>2016-09-08T05:30:19Z</time>
      </trkpt>
      <trkpt lat="45.77568" lon="4.84271">
        <ele>167</ele>
        <time>2016-09-08T05:30:29Z</time>
      </trkpt>
      <trkpt lat="45.77578" lon="4.84278">
        <ele>167</ele>
        <time>2016-09-08T05:30:36Z</time>
      </trkpt>
      <trkpt lat="45.77581" lon="4.8428">
        <ele>167</ele>
        <time>2016-09-08T05:30:38Z</time>
      </trkpt>
      <trkpt lat="45.77589" lon="4.84284">
        <ele>169</ele>
        <time>2016-09-08T05:30:43Z</time>
      </trkpt>
      <trkpt lat="45.77605" lon="4.84295">
        <ele>169</ele>
        <time>2016-09-08T05:30:53Z</time>
      </trkpt>
      <trkpt lat="45.7761" lon="4.843">
        <ele>170</ele>
        <time>2016-09-08T05:30:56Z</time>
      </trkpt>
      <trkpt lat="45.77623" lon="4.84311">
        <ele>174</ele>
        <time>2016-09-08T05:31:05Z</time>
      </trkpt>
      <trkpt lat="45.77628" lon="4.84314">
        <ele>174</ele>
        <time>2016-09-08T05:31:08Z</time>
      </trkpt>
      <trkpt lat="45.77644" lon="4.84322">
        <ele>171</ele>
        <time>2016-09-08T05:31:18Z</time>
      </trkpt>
      <trkpt lat="45.77646" lon="4.84323">
        <ele>170</ele>
        <time>2016-09-08T05:31:19Z</time>
      </trkpt>
      <trkpt lat="45.77655" lon="4.84329">
        <ele>173</ele>
        <time>2016-09-08T05:31:25Z</time>
      </trkpt>
      <trkpt lat="45.77665" lon="4.84338">
        <ele>165</ele>
        <time>2016-09-08T05:31:32Z</time>
      </trkpt>
      <trkpt lat="45.77679" lon="4.84346">
        <ele>164</ele>
        <time>2016-09-08T05:31:40Z</time>
      </trkpt>
      <trkpt lat="45.77688" lon="4.8435">
        <ele>168</ele>
        <time>2016-09-08T05:31:46Z</time>
      </trkpt>
      <trkpt lat="45.77693" lon="4.84353">
        <ele>169</ele>
        <time>2016-09-08T05:31:49Z</time>
      </trkpt>
      <trkpt lat="45.77701" lon="4.84359">
        <ele>169</ele>
        <time>2016-09-08T05:31:55Z</time>
      </trkpt>
      <trkpt lat="45.7771" lon="4.84365">
        <ele>166</ele>
        <time>2016-09-08T05:32:01Z</time>
      </trkpt>
      <trkpt lat="45.77722" lon="4.84371">
        <ele>169</ele>
        <time>2016-09-08T05:32:09Z</time>
      </trkpt>
      <trkpt lat="45.77728" lon="4.84374">
        <ele>169</ele>
        <time>2016-09-08T05:32:13Z</time>
      </trkpt>
      <trkpt lat="45.77745" lon="4.8438">
        <ele>165</ele>
        <time>2016-09-08T05:32:23Z</time>
      </trkpt>
      <trkpt lat="45.77753" lon="4.84385">
        <ele>164</ele>
        <time>2016-09-08T05:32:28Z</time>
      </trkpt>
      <trkpt lat="45.77758" lon="4.84389">
        <ele>164</ele>
        <time>2016-09-08T05:32:32Z</time>
      </trkpt>
      <trkpt lat="45.77751" lon="4.84395">
        <ele>166</ele>
        <time>2016-09-08T05:32:38Z</time>
      </trkpt>
      <trkpt lat="45.77739" lon="4.84388">
        <ele>167</ele>
        <time>2016-09-08T05:32:44Z</time>
      </trkpt>
      <trkpt lat="45.77726" lon="4.84384">
        <ele>167</ele>
        <time>2016-09-08T05:32:52Z</time>
      </trkpt>
      <trkpt lat="45.7772" lon="4.84383">
        <ele>167</ele>
        <time>2016-09-08T05:32:55Z</time>
      </trkpt>
      <trkpt lat="45.77711" lon="4.84379">
        <ele>169</ele>
        <time>2016-09-08T05:33:01Z</time>
      </trkpt>
      <trkpt lat="45.77694" lon="4.84373">
        <ele>172</ele>
        <time>2016-09-08T05:33:11Z</time>
      </trkpt>
      <trkpt lat="45.77688" lon="4.84373">
        <ele>176</ele>
        <time>2016-09-08T05:33:14Z</time>
      </trkpt>
      <trkpt lat="45.77679" lon="4.84369">
        <ele>175</ele>
        <time>2016-09-08T05:33:19Z</time>
      </trkpt>
      <trkpt lat="45.77674" lon="4.84374">
        <ele>180</ele>
        <time>2016-09-08T05:33:30Z</time>
      </trkpt>
      <trkpt lat="45.77675" lon="4.84374">
        <ele>180</ele>
        <time>2016-09-08T05:33:31Z</time>
      </trkpt>
      <trkpt lat="45.77677" lon="4.84374">
        <ele>180</ele>
        <time>2016-09-08T05:33:37Z</time>
      </trkpt>
      <trkpt lat="45.77677" lon="4.84374">
        <ele>179</ele>
        <time>2016-09-08T05:33:43Z</time>
      </trkpt>
      <trkpt lat="45.77677" lon="4.84374">
        <ele>179</ele>
        <time>2016-09-08T05:33:50Z</time>
      </trkpt>
      <trkpt lat="45.77677" lon="4.84374">
        <ele>179</ele>
        <time>2016-09-08T05:33:55Z</time>
      </trkpt>
      <trkpt lat="45.77677" lon="4.84374">
        <ele>179</ele>
        <time>2016-09-08T05:34:01Z</time>
      </trkpt>
      <trkpt lat="45.77676" lon="4.84382">
        <ele>179</ele>
        <time>2016-09-08T05:34:12Z</time>
      </trkpt>
      <trkpt lat="45.77675" lon="4.84385">
        <ele>179</ele>
        <time>2016-09-08T05:34:13Z</time>
      </trkpt>
      <trkpt lat="45.7767" lon="4.84404">
        <ele>177</ele>
        <time>2016-09-08T05:34:23Z</time>
      </trkpt>
      <trkpt lat="45.77668" lon="4.8441">
        <ele>176</ele>
        <time>2016-09-08T05:34:26Z</time>
      </trkpt>
      <trkpt lat="45.77668" lon="4.8441">
        <ele>176</ele>
        <time>2016-09-08T05:34:33Z</time>
      </trkpt>
      <trkpt lat="45.77667" lon="4.8441">
        <ele>176</ele>
        <time>2016-09-08T05:34:38Z</time>
      </trkpt>
      <trkpt lat="45.77667" lon="4.8441">
        <ele>176</ele>
        <time>2016-09-08T05:34:45Z</time>
      </trkpt>
      <trkpt lat="45.77667" lon="4.8441">
        <ele>176</ele>
        <time>2016-09-08T05:34:54Z</time>
      </trkpt>
      <trkpt lat="45.77669" lon="4.84412">
        <ele>176</ele>
        <time>2016-09-08T05:34:56Z</time>
      </trkpt>
      <trkpt lat="45.77682" lon="4.84428">
        <ele>171</ele>
        <time>2016-09-08T05:35:05Z</time>
      </trkpt>
      <trkpt lat="45.77685" lon="4.84435">
        <ele>171</ele>
        <time>2016-09-08T05:35:08Z</time>
      </trkpt>
      <trkpt lat="45.77691" lon="4.84459">
        <ele>174</ele>
        <time>2016-09-08T05:35:19Z</time>
      </trkpt>
      <trkpt lat="45.77694" lon="4.84464">
        <ele>174</ele>
        <time>2016-09-08T05:35:21Z</time>
      </trkpt>
      <trkpt lat="45.77702" lon="4.84486">
        <ele>174</ele>
        <time>2016-09-08T05:35:30Z</time>
      </trkpt>
      <trkpt lat="45.77704" lon="4.84491">
        <ele>175</ele>
        <time>2016-09-08T05:35:32Z</time>
      </trkpt>
      <trkpt lat="45.77708" lon="4.84504">
        <ele>174</ele>
        <time>2016-09-08T05:35:38Z</time>
      </trkpt>
      <trkpt lat="45.77716" lon="4.84522">
        <ele>176</ele>
        <time>2016-09-08T05:35:46Z</time>
      </trkpt>
      <trkpt lat="45.77717" lon="4.84531">
        <ele>175</ele>
        <time>2016-09-08T05:35:50Z</time>
      </trkpt>
      <trkpt lat="45.77708" lon="4.84541">
        <ele>173</ele>
        <time>2016-09-08T05:35:56Z</time>
      </trkpt>
      <trkpt lat="45.77698" lon="4.84543">
        <ele>171</ele>
        <time>2016-09-08T05:36:02Z</time>
      </trkpt>
      <trkpt lat="45.77689" lon="4.8456">
        <ele>169</ele>
        <time>2016-09-08T05:36:13Z</time>
      </trkpt>
      <trkpt lat="45.77684" lon="4.84567">
        <ele>168</ele>
        <time>2016-09-08T05:36:17Z</time>
      </trkpt>
      <trkpt lat="45.77676" lon="4.84583">
        <ele>164</ele>
        <time>2016-09-08T05:36:25Z</time>
      </trkpt>
      <trkpt lat="45.77673" lon="4.8459">
        <ele>167</ele>
        <time>2016-09-08T05:36:28Z</time>
      </trkpt>
      <trkpt lat="45.77666" lon="4.84604">
        <ele>170</ele>
        <time>2016-09-08T05:36:35Z</time>
      </trkpt>
      <trkpt lat="45.77662" lon="4.84609">
        <ele>171</ele>
        <time>2016-09-08T05:36:38Z</time>
      </trkpt>
      <trkpt lat="45.77649" lon="4.8463">
        <ele>172</ele>
        <time>2016-09-08T05:36:48Z</time>
      </trkpt>
      <trkpt lat="45.77639" lon="4.84642">
        <ele>172</ele>
        <time>2016-09-08T05:36:55Z</time>
      </trkpt>
      <trkpt lat="45.77637" lon="4.84644">
        <ele>172</ele>
        <time>2016-09-08T05:36:56Z</time>
      </trkpt>
      <trkpt lat="45.77635" lon="4.84665">
        <ele>171</ele>
        <time>2016-09-08T05:37:05Z</time>
      </trkpt>
      <trkpt lat="45.77621" lon="4.84682">
        <ele>166</ele>
        <time>2016-09-08T05:37:13Z</time>
      </trkpt>
      <trkpt lat="45.7762" lon="4.84683">
        <ele>167</ele>
        <time>2016-09-08T05:37:14Z</time>
      </trkpt>
      <trkpt lat="45.77609" lon="4.8469">
        <ele>166</ele>
        <time>2016-09-08T05:37:20Z</time>
      </trkpt>
      <trkpt lat="45.77605" lon="4.84704">
        <ele>171</ele>
        <time>2016-09-08T05:37:26Z</time>
      </trkpt>
      <trkpt lat="45.77598" lon="4.8472">
        <ele>170</ele>
        <time>2016-09-08T05:37:36Z</time>
      </trkpt>
      <trkpt lat="45.77597" lon="4.84724">
        <ele>166</ele>
        <time>2016-09-08T05:37:38Z</time>
      </trkpt>
      <trkpt lat="45.77593" lon="4.84743">
        <ele>164</ele>
        <time>2016-09-08T05:37:46Z</time>
      </trkpt>
      <trkpt lat="45.77586" lon="4.84758">
        <ele>167</ele>
        <time>2016-09-08T05:37:53Z</time>
      </trkpt>
      <trkpt lat="45.77583" lon="4.84767">
        <ele>168</ele>
        <time>2016-09-08T05:37:56Z</time>
      </trkpt>
      <trkpt lat="45.77578" lon="4.84782">
        <ele>164</ele>
        <time>2016-09-08T05:38:02Z</time>
      </trkpt>
      <trkpt lat="45.77571" lon="4.84806">
        <ele>172</ele>
        <time>2016-09-08T05:38:13Z</time>
      </trkpt>
      <trkpt lat="45.7757" lon="4.84808">
        <ele>171</ele>
        <time>2016-09-08T05:38:14Z</time>
      </trkpt>
      <trkpt lat="45.77565" lon="4.84822">
        <ele>170</ele>
        <time>2016-09-08T05:38:20Z</time>
      </trkpt>
      <trkpt lat="45.77557" lon="4.84838">
        <ele>170</ele>
        <time>2016-09-08T05:38:27Z</time>
      </trkpt>
      <trkpt lat="45.77552" lon="4.84861">
        <ele>170</ele>
        <time>2016-09-08T05:38:37Z</time>
      </trkpt>
      <trkpt lat="45.77551" lon="4.84863">
        <ele>170</ele>
        <time>2016-09-08T05:38:38Z</time>
      </trkpt>
      <trkpt lat="45.77548" lon="4.84884">
        <ele>169</ele>
        <time>2016-09-08T05:38:47Z</time>
      </trkpt>
      <trkpt lat="45.77545" lon="4.8489">
        <ele>170</ele>
        <time>2016-09-08T05:38:50Z</time>
      </trkpt>
      <trkpt lat="45.77536" lon="4.84903">
        <ele>169</ele>
        <time>2016-09-08T05:38:57Z</time>
      </trkpt>
      <trkpt lat="45.77529" lon="4.84914">
        <ele>170</ele>
        <time>2016-09-08T05:39:03Z</time>
      </trkpt>
      <trkpt lat="45.77523" lon="4.84928">
        <ele>168</ele>
        <time>2016-09-08T05:39:10Z</time>
      </trkpt>
      <trkpt lat="45.7752" lon="4.84936">
        <ele>168</ele>
        <time>2016-09-08T05:39:14Z</time>
      </trkpt>
      <trkpt lat="45.77513" lon="4.8496">
        <ele>167</ele>
        <time>2016-09-08T05:39:24Z</time>
      </trkpt>
      <trkpt lat="45.77512" lon="4.84965">
        <ele>166</ele>
        <time>2016-09-08T05:39:26Z</time>
      </trkpt>
      <trkpt lat="45.77506" lon="4.84978">
        <ele>161</ele>
        <time>2016-09-08T05:39:32Z</time>
      </trkpt>
      <trkpt lat="45.77497" lon="4.85001">
        <ele>161</ele>
        <time>2016-09-08T05:39:43Z</time>
      </trkpt>
      <trkpt lat="45.77496" lon="4.85003">
        <ele>160</ele>
        <time>2016-09-08T05:39:44Z</time>
      </trkpt>
      <trkpt lat="45.77491" lon="4.85013">
        <ele>161</ele>
        <time>2016-09-08T05:39:50Z</time>
      </trkpt>
      <trkpt lat="45.77485" lon="4.85024">
        <ele>164</ele>
        <time>2016-09-08T05:39:56Z</time>
      </trkpt>
      <trkpt lat="45.77472" lon="4.85042">
        <ele>164</ele>
        <time>2016-09-08T05:40:07Z</time>
      </trkpt>
      <trkpt lat="45.77468" lon="4.85054">
        <ele>168</ele>
        <time>2016-09-08T05:40:12Z</time>
      </trkpt>
      <trkpt lat="45.77461" lon="4.85064">
        <ele>168</ele>
        <time>2016-09-08T05:40:17Z</time>
      </trkpt>
      <trkpt lat="45.77458" lon="4.85071">
        <ele>168</ele>
        <time>2016-09-08T05:40:20Z</time>
      </trkpt>
      <trkpt lat="45.7745" lon="4.85087">
        <ele>167</ele>
        <time>2016-09-08T05:40:27Z</time>
      </trkpt>
      <trkpt lat="45.77444" lon="4.85098">
        <ele>163</ele>
        <time>2016-09-08T05:40:33Z</time>
      </trkpt>
      <trkpt lat="45.77438" lon="4.85107">
        <ele>164</ele>
        <time>2016-09-08T05:40:39Z</time>
      </trkpt>
      <trkpt lat="45.77431" lon="4.85118">
        <ele>164</ele>
        <time>2016-09-08T05:40:45Z</time>
      </trkpt>
      <trkpt lat="45.77427" lon="4.85127">
        <ele>163</ele>
        <time>2016-09-08T05:40:50Z</time>
      </trkpt>
      <trkpt lat="45.7742" lon="4.85139">
        <ele>165</ele>
        <time>2016-09-08T05:40:56Z</time>
      </trkpt>
      <trkpt lat="45.77411" lon="4.85145">
        <ele>165</ele>
        <time>2016-09-08T05:41:02Z</time>
      </trkpt>
      <trkpt lat="45.77402" lon="4.85148">
        <ele>166</ele>
        <time>2016-09-08T05:41:08Z</time>
      </trkpt>
      <trkpt lat="45.77387" lon="4.85149">
        <ele>165</ele>
        <time>2016-09-08T05:41:18Z</time>
      </trkpt>
      <trkpt lat="45.77374" lon="4.85152">
        <ele>166</ele>
        <time>2016-09-08T05:41:25Z</time>
      </trkpt>
      <trkpt lat="45.77373" lon="4.85152">
        <ele>166</ele>
        <time>2016-09-08T05:41:26Z</time>
      </trkpt>
      <trkpt lat="45.77365" lon="4.8516">
        <ele>168</ele>
        <time>2016-09-08T05:41:36Z</time>
      </trkpt>
      <trkpt lat="45.77362" lon="4.85164">
        <ele>167</ele>
        <time>2016-09-08T05:41:38Z</time>
      </trkpt>
      <trkpt lat="45.77353" lon="4.85187">
        <ele>165</ele>
        <time>2016-09-08T05:41:46Z</time>
      </trkpt>
      <trkpt lat="45.7735" lon="4.85196">
        <ele>165</ele>
        <time>2016-09-08T05:41:50Z</time>
      </trkpt>
      <trkpt lat="45.77349" lon="4.85224">
        <ele>167</ele>
        <time>2016-09-08T05:42:01Z</time>
      </trkpt>
      <trkpt lat="45.7735" lon="4.85231">
        <ele>168</ele>
        <time>2016-09-08T05:42:04Z</time>
      </trkpt>
      <trkpt lat="45.7735" lon="4.85241">
        <ele>167</ele>
        <time>2016-09-08T05:42:08Z</time>
      </trkpt>
      <trkpt lat="45.77348" lon="4.85256">
        <ele>170</ele>
        <time>2016-09-08T05:42:14Z</time>
      </trkpt>
      <trkpt lat="45.77347" lon="4.85276">
        <ele>172</ele>
        <time>2016-09-08T05:42:23Z</time>
      </trkpt>
      <trkpt lat="45.77344" lon="4.85282">
        <ele>168</ele>
        <time>2016-09-08T05:42:26Z</time>
      </trkpt>
      <trkpt lat="45.77338" lon="4.85295">
        <ele>169</ele>
        <time>2016-09-08T05:42:32Z</time>
      </trkpt>
      <trkpt lat="45.77332" lon="4.85306">
        <ele>169</ele>
        <time>2016-09-08T05:42:38Z</time>
      </trkpt>
      <trkpt lat="45.77324" lon="4.85332">
        <ele>170</ele>
        <time>2016-09-08T05:42:49Z</time>
      </trkpt>
      <trkpt lat="45.7732" lon="4.85338">
        <ele>169</ele>
        <time>2016-09-08T05:42:52Z</time>
      </trkpt>
      <trkpt lat="45.77311" lon="4.85358">
        <ele>170</ele>
        <time>2016-09-08T05:43:01Z</time>
      </trkpt>
      <trkpt lat="45.7731" lon="4.85361">
        <ele>171</ele>
        <time>2016-09-08T05:43:02Z</time>
      </trkpt>
      <trkpt lat="45.77305" lon="4.85374">
        <ele>173</ele>
        <time>2016-09-08T05:43:08Z</time>
      </trkpt>
      <trkpt lat="45.773" lon="4.85389">
        <ele>171</ele>
        <time>2016-09-08T05:43:14Z</time>
      </trkpt>
      <trkpt lat="45.77292" lon="4.85404">
        <ele>171</ele>
        <time>2016-09-08T05:43:21Z</time>
      </trkpt>
      <trkpt lat="45.77296" lon="4.85424">
        <ele>172</ele>
        <time>2016-09-08T05:43:31Z</time>
      </trkpt>
      <trkpt lat="45.77301" lon="4.85427">
        <ele>172</ele>
        <time>2016-09-08T05:43:34Z</time>
      </trkpt>
      <trkpt lat="45.77313" lon="4.8544">
        <ele>170</ele>
        <time>2016-09-08T05:43:42Z</time>
      </trkpt>
      <trkpt lat="45.77316" lon="4.85446">
        <ele>169</ele>
        <time>2016-09-08T05:43:45Z</time>
      </trkpt>
      <trkpt lat="45.77324" lon="4.85453">
        <ele>169</ele>
        <time>2016-09-08T05:43:50Z</time>
      </trkpt>
      <trkpt lat="45.77333" lon="4.85463">
        <ele>169</ele>
        <time>2016-09-08T05:43:56Z</time>
      </trkpt>
      <trkpt lat="45.77342" lon="4.85477">
        <ele>167</ele>
        <time>2016-09-08T05:44:04Z</time>
      </trkpt>
      <trkpt lat="45.77347" lon="4.85484">
        <ele>167</ele>
        <time>2016-09-08T05:44:08Z</time>
      </trkpt>
      <trkpt lat="45.77348" lon="4.85502">
        <ele>168</ele>
        <time>2016-09-08T05:44:18Z</time>
      </trkpt>
      <trkpt lat="45.77349" lon="4.85508">
        <ele>167</ele>
        <time>2016-09-08T05:44:20Z</time>
      </trkpt>
      <trkpt lat="45.77352" lon="4.85524">
        <ele>170</ele>
        <time>2016-09-08T05:44:26Z</time>
      </trkpt>
      <trkpt lat="45.77354" lon="4.85539">
        <ele>172</ele>
        <time>2016-09-08T05:44:33Z</time>
      </trkpt>
      <trkpt lat="45.77358" lon="4.85559">
        <ele>171</ele>
        <time>2016-09-08T05:44:42Z</time>
      </trkpt>
      <trkpt lat="45.77361" lon="4.85573">
        <ele>171</ele>
        <time>2016-09-08T05:44:48Z</time>
      </trkpt>
      <trkpt lat="45.77361" lon="4.85579">
        <ele>171</ele>
        <time>2016-09-08T05:44:50Z</time>
      </trkpt>
      <trkpt lat="45.77364" lon="4.85595">
        <ele>169</ele>
        <time>2016-09-08T05:44:56Z</time>
      </trkpt>
      <trkpt lat="45.77364" lon="4.85618">
        <ele>168</ele>
        <time>2016-09-08T05:45:05Z</time>
      </trkpt>
      <trkpt lat="45.77365" lon="4.85624">
        <ele>168</ele>
        <time>2016-09-08T05:45:08Z</time>
      </trkpt>
      <trkpt lat="45.77374" lon="4.85642">
        <ele>170</ele>
        <time>2016-09-08T05:45:17Z</time>
      </trkpt>
      <trkpt lat="45.77378" lon="4.85646">
        <ele>170</ele>
        <time>2016-09-08T05:45:20Z</time>
      </trkpt>
      <trkpt lat="45.77388" lon="4.85654">
        <ele>170</ele>
        <time>2016-09-08T05:45:27Z</time>
      </trkpt>
      <trkpt lat="45.7739" lon="4.85665">
        <ele>167</ele>
        <time>2016-09-08T05:45:32Z</time>
      </trkpt>
      <trkpt lat="45.77393" lon="4.85676">
        <ele>169</ele>
        <time>2016-09-08T05:45:38Z</time>
      </trkpt>
      <trkpt lat="45.77392" lon="4.85689">
        <ele>169</ele>
        <time>2016-09-08T05:45:44Z</time>
      </trkpt>
      <trkpt lat="45.77394" lon="4.85708">
        <ele>173</ele>
        <time>2016-09-08T05:45:52Z</time>
      </trkpt>
      <trkpt lat="45.77401" lon="4.85732">
        <ele>176</ele>
        <time>2016-09-08T05:46:01Z</time>
      </trkpt>
      <trkpt lat="45.77401" lon="4.85744">
        <ele>172</ele>
        <time>2016-09-08T05:46:06Z</time>
      </trkpt>
      <trkpt lat="45.77402" lon="4.8576">
        <ele>172</ele>
        <time>2016-09-08T05:46:13Z</time>
      </trkpt>
      <trkpt lat="45.77402" lon="4.85762">
        <ele>171</ele>
        <time>2016-09-08T05:46:14Z</time>
      </trkpt>
      <trkpt lat="45.77411" lon="4.8577">
        <ele>175</ele>
        <time>2016-09-08T05:46:20Z</time>
      </trkpt>
      <trkpt lat="45.7742" lon="4.85781">
        <ele>172</ele>
        <time>2016-09-08T05:46:29Z</time>
      </trkpt>
      <trkpt lat="45.7742" lon="4.85785">
        <ele>171</ele>
        <time>2016-09-08T05:46:32Z</time>
      </trkpt>
      <trkpt lat="45.77428" lon="4.85795">
        <ele>167</ele>
        <time>2016-09-08T05:46:38Z</time>
      </trkpt>
      <trkpt lat="45.77448" lon="4.85809">
        <ele>166</ele>
        <time>2016-09-08T05:46:49Z</time>
      </trkpt>
      <trkpt lat="45.77456" lon="4.85813">
        <ele>166</ele>
        <time>2016-09-08T05:46:55Z</time>
      </trkpt>
      <trkpt lat="45.77457" lon="4.85813">
        <ele>167</ele>
        <time>2016-09-08T05:46:56Z</time>
      </trkpt>
      <trkpt lat="45.77467" lon="4.85816">
        <ele>168</ele>
        <time>2016-09-08T05:47:02Z</time>
      </trkpt>
      <trkpt lat="45.77477" lon="4.85818">
        <ele>168</ele>
        <time>2016-09-08T05:47:08Z</time>
      </trkpt>
      <trkpt lat="45.77486" lon="4.8582">
        <ele>167</ele>
        <time>2016-09-08T05:47:14Z</time>
      </trkpt>
      <trkpt lat="45.77499" lon="4.85821">
        <ele>168</ele>
        <time>2016-09-08T05:47:20Z</time>
      </trkpt>
      <trkpt lat="45.77512" lon="4.85832">
        <ele>170</ele>
        <time>2016-09-08T05:47:27Z</time>
      </trkpt>
      <trkpt lat="45.77523" lon="4.85833">
        <ele>170</ele>
        <time>2016-09-08T05:47:32Z</time>
      </trkpt>
      <trkpt lat="45.77531" lon="4.85835">
        <ele>169</ele>
        <time>2016-09-08T05:47:38Z</time>
      </trkpt>
      <trkpt lat="45.77542" lon="4.85838">
        <ele>168</ele>
        <time>2016-09-08T05:47:44Z</time>
      </trkpt>
      <trkpt lat="45.77557" lon="4.85838">
        <ele>170</ele>
        <time>2016-09-08T05:47:53Z</time>
      </trkpt>
      <trkpt lat="45.77561" lon="4.85836">
        <ele>173</ele>
        <time>2016-09-08T05:47:56Z</time>
      </trkpt>
      <trkpt lat="45.77577" lon="4.8584">
        <ele>171</ele>
        <time>2016-09-08T05:48:06Z</time>
      </trkpt>
      <trkpt lat="45.77586" lon="4.85839">
        <ele>171</ele>
        <time>2016-09-08T05:48:12Z</time>
      </trkpt>
      <trkpt lat="45.77589" lon="4.85838">
        <ele>171</ele>
        <time>2016-09-08T05:48:14Z</time>
      </trkpt>
      <trkpt lat="45.77608" lon="4.85843">
        <ele>173</ele>
        <time>2016-09-08T05:48:24Z</time>
      </trkpt>
      <trkpt lat="45.77612" lon="4.85845">
        <ele>174</ele>
        <time>2016-09-08T05:48:26Z</time>
      </trkpt>
      <trkpt lat="45.77625" lon="4.85846">
        <ele>173</ele>
        <time>2016-09-08T05:48:33Z</time>
      </trkpt>
      <trkpt lat="45.77632" lon="4.85845">
        <ele>174</ele>
        <time>2016-09-08T05:48:38Z</time>
      </trkpt>
      <trkpt lat="45.77641" lon="4.85837">
        <ele>175</ele>
        <time>2016-09-08T05:48:45Z</time>
      </trkpt>
      <trkpt lat="45.7765" lon="4.85832">
        <ele>177</ele>
        <time>2016-09-08T05:48:50Z</time>
      </trkpt>
      <trkpt lat="45.77669" lon="4.85831">
        <ele>172</ele>
        <time>2016-09-08T05:49:00Z</time>
      </trkpt>
      <trkpt lat="45.77672" lon="4.8583">
        <ele>173</ele>
        <time>2016-09-08T05:49:02Z</time>
      </trkpt>
      <trkpt lat="45.77682" lon="4.85832">
        <ele>172</ele>
        <time>2016-09-08T05:49:08Z</time>
      </trkpt>
      <trkpt lat="45.77694" lon="4.85841">
        <ele>168</ele>
        <time>2016-09-08T05:49:15Z</time>
      </trkpt>
      <trkpt lat="45.77703" lon="4.85845">
        <ele>169</ele>
        <time>2016-09-08T05:49:20Z</time>
      </trkpt>
      <trkpt lat="45.77722" lon="4.85848">
        <ele>169</ele>
        <time>2016-09-08T05:49:31Z</time>
      </trkpt>
      <trkpt lat="45.77724" lon="4.85848">
        <ele>170</ele>
        <time>2016-09-08T05:49:32Z</time>
      </trkpt>
      <trkpt lat="45.77734" lon="4.85855">
        <ele>167</ele>
        <time>2016-09-08T05:49:38Z</time>
      </trkpt>
      <trkpt lat="45.77744" lon="4.85861">
        <ele>164</ele>
        <time>2016-09-08T05:49:44Z</time>
      </trkpt>
      <trkpt lat="45.77757" lon="4.8585">
        <ele>167</ele>
        <time>2016-09-08T05:49:53Z</time>
      </trkpt>
      <trkpt lat="45.77762" lon="4.8585">
        <ele>164</ele>
        <time>2016-09-08T05:49:56Z</time>
      </trkpt>
      <trkpt lat="45.77771" lon="4.85844">
        <ele>166</ele>
        <time>2016-09-08T05:50:02Z</time>
      </trkpt>
      <trkpt lat="45.77787" lon="4.85826">
        <ele>172</ele>
        <time>2016-09-08T05:50:12Z</time>
      </trkpt>
      <trkpt lat="45.77797" lon="4.85829">
        <ele>168</ele>
        <time>2016-09-08T05:50:17Z</time>
      </trkpt>
      <trkpt lat="45.77811" lon="4.85828">
        <ele>169</ele>
        <time>2016-09-08T05:50:25Z</time>
      </trkpt>
      <trkpt lat="45.77814" lon="4.85831">
        <ele>172</ele>
        <time>2016-09-08T05:50:27Z</time>
      </trkpt>
      <trkpt lat="45.77824" lon="4.85839">
        <ele>175</ele>
        <time>2016-09-08T05:50:33Z</time>
      </trkpt>
      <trkpt lat="45.77834" lon="4.85842">
        <ele>172</ele>
        <time>2016-09-08T05:50:38Z</time>
      </trkpt>
      <trkpt lat="45.77846" lon="4.85842">
        <ele>175</ele>
        <time>2016-09-08T05:50:47Z</time>
      </trkpt>
      <trkpt lat="45.77855" lon="4.85845">
        <ele>172</ele>
        <time>2016-09-08T05:50:52Z</time>
      </trkpt>
      <trkpt lat="45.77869" lon="4.85847">
        <ele>179</ele>
        <time>2016-09-08T05:51:01Z</time>
      </trkpt>
      <trkpt lat="45.77874" lon="4.85848">
        <ele>178</ele>
        <time>2016-09-08T05:51:04Z</time>
      </trkpt>
      <trkpt lat="45.77889" lon="4.85854">
        <ele>175</ele>
        <time>2016-09-08T05:51:12Z</time>
      </trkpt>
      <trkpt lat="45.77899" lon="4.85858">
        <ele>174</ele>
        <time>2016-09-08T05:51:18Z</time>
      </trkpt>
      <trkpt lat="45.77903" lon="4.85859">
        <ele>177</ele>
        <time>2016-09-08T05:51:20Z</time>
      </trkpt>
      <trkpt lat="45.77919" lon="4.85862">
        <ele>174</ele>
        <time>2016-09-08T05:51:31Z</time>
      </trkpt>
      <trkpt lat="45.77926" lon="4.85863">
        <ele>170</ele>
        <time>2016-09-08T05:51:36Z</time>
      </trkpt>
      <trkpt lat="45.77929" lon="4.85864">
        <ele>175</ele>
        <time>2016-09-08T05:51:38Z</time>
      </trkpt>
      <trkpt lat="45.77946" lon="4.85869">
        <ele>162</ele>
        <time>2016-09-08T05:51:49Z</time>
      </trkpt>
      <trkpt lat="45.77948" lon="4.8587">
        <ele>164</ele>
        <time>2016-09-08T05:51:50Z</time>
      </trkpt>
      <trkpt lat="45.77971" lon="4.85875">
        <ele>164</ele>
        <time>2016-09-08T05:52:01Z</time>
      </trkpt>
      <trkpt lat="45.7798" lon="4.85872">
        <ele>167</ele>
        <time>2016-09-08T05:52:06Z</time>
      </trkpt>
      <trkpt lat="45.77986" lon="4.85871">
        <ele>168</ele>
        <time>2016-09-08T05:52:09Z</time>
      </trkpt>
      <trkpt lat="45.77997" lon="4.85871">
        <ele>169</ele>
        <time>2016-09-08T05:52:15Z</time>
      </trkpt>
      <trkpt lat="45.78006" lon="4.85869">
        <ele>170</ele>
        <time>2016-09-08T05:52:20Z</time>
      </trkpt>
      <trkpt lat="45.78016" lon="4.85867">
        <ele>173</ele>
        <time>2016-09-08T05:52:26Z</time>
      </trkpt>
      <trkpt lat="45.78034" lon="4.85866">
        <ele>172</ele>
        <time>2016-09-08T05:52:37Z</time>
      </trkpt>
      <trkpt lat="45.78036" lon="4.85866">
        <ele>173</ele>
        <time>2016-09-08T05:52:38Z</time>
      </trkpt>
      <trkpt lat="45.78051" lon="4.85868">
        <ele>170</ele>
        <time>2016-09-08T05:52:48Z</time>
      </trkpt>
      <trkpt lat="45.78055" lon="4.85868">
        <ele>171</ele>
        <time>2016-09-08T05:52:50Z</time>
      </trkpt>
      <trkpt lat="45.78065" lon="4.85868">
        <ele>171</ele>
        <time>2016-09-08T05:52:56Z</time>
      </trkpt>
      <trkpt lat="45.78075" lon="4.8587">
        <ele>166</ele>
        <time>2016-09-08T05:53:02Z</time>
      </trkpt>
      <trkpt lat="45.78084" lon="4.85872">
        <ele>167</ele>
        <time>2016-09-08T05:53:08Z</time>
      </trkpt>
      <trkpt lat="45.78101" lon="4.85872">
        <ele>167</ele>
        <time>2016-09-08T05:53:18Z</time>
      </trkpt>
      <trkpt lat="45.78104" lon="4.85872">
        <ele>167</ele>
        <time>2016-09-08T05:53:20Z</time>
      </trkpt>
      <trkpt lat="45.78114" lon="4.85871">
        <ele>167</ele>
        <time>2016-09-08T05:53:26Z</time>
      </trkpt>
      <trkpt lat="45.78124" lon="4.85871">
        <ele>164</ele>
        <time>2016-09-08T05:53:32Z</time>
      </trkpt>
      <trkpt lat="45.78134" lon="4.85871">
        <ele>162</ele>
        <time>2016-09-08T05:53:38Z</time>
      </trkpt>
      <trkpt lat="45.78144" lon="4.85866">
        <ele>163</ele>
        <time>2016-09-08T05:53:44Z</time>
      </trkpt>
      <trkpt lat="45.78161" lon="4.8586">
        <ele>162</ele>
        <time>2016-09-08T05:53:54Z</time>
      </trkpt>
      <trkpt lat="45.78173" lon="4.85862">
        <ele>168</ele>
        <time>2016-09-08T05:54:01Z</time>
      </trkpt>
      <trkpt lat="45.78174" lon="4.85861">
        <ele>169</ele>
        <time>2016-09-08T05:54:02Z</time>
      </trkpt>
      <trkpt lat="45.78188" lon="4.85854">
        <ele>170</ele>
        <time>2016-09-08T05:54:10Z</time>
      </trkpt>
      <trkpt lat="45.78204" lon="4.8586">
        <ele>170</ele>
        <time>2016-09-08T05:54:19Z</time>
      </trkpt>
      <trkpt lat="45.78207" lon="4.85865">
        <ele>169</ele>
        <time>2016-09-08T05:54:21Z</time>
      </trkpt>
      <trkpt lat="45.78215" lon="4.85875">
        <ele>167</ele>
        <time>2016-09-08T05:54:26Z</time>
      </trkpt>
      <trkpt lat="45.78228" lon="4.85876">
        <ele>171</ele>
        <time>2016-09-08T05:54:35Z</time>
      </trkpt>
      <trkpt lat="45.78237" lon="4.85871">
        <ele>174</ele>
        <time>2016-09-08T05:54:41Z</time>
      </trkpt>
      <trkpt lat="45.78242" lon="4.8587">
        <ele>174</ele>
        <time>2016-09-08T05:54:44Z</time>
      </trkpt>
      <trkpt lat="45.78259" lon="4.85873">
        <ele>167</ele>
        <time>2016-09-08T05:54:53Z</time>
      </trkpt>
      <trkpt lat="45.7827" lon="4.85877">
        <ele>165</ele>
        <time>2016-09-08T05:54:59Z</time>
      </trkpt>
      <trkpt lat="45.78275" lon="4.85878">
        <ele>166</ele>
        <time>2016-09-08T05:55:02Z</time>
      </trkpt>
      <trkpt lat="45.78282" lon="4.85877">
        <ele>169</ele>
        <time>2016-09-08T05:55:08Z</time>
      </trkpt>
      <trkpt lat="45.78292" lon="4.85875">
        <ele>168</ele>
        <time>2016-09-08T05:55:14Z</time>
      </trkpt>
      <trkpt lat="45.78306" lon="4.85876">
        <ele>167</ele>
        <time>2016-09-08T05:55:22Z</time>
      </trkpt>
      <trkpt lat="45.78317" lon="4.85875">
        <ele>165</ele>
        <time>2016-09-08T05:55:28Z</time>
      </trkpt>
      <trkpt lat="45.78325" lon="4.85874">
        <ele>163</ele>
        <time>2016-09-08T05:55:32Z</time>
      </trkpt>
      <trkpt lat="45.78331" lon="4.85875">
        <ele>164</ele>
        <time>2016-09-08T05:55:38Z</time>
      </trkpt>
      <trkpt lat="45.78353" lon="4.85866">
        <ele>169</ele>
        <time>2016-09-08T05:55:48Z</time>
      </trkpt>
      <trkpt lat="45.7836" lon="4.85869">
        <ele>165</ele>
        <time>2016-09-08T05:55:52Z</time>
      </trkpt>
      <trkpt lat="45.78372" lon="4.85877">
        <ele>165</ele>
        <time>2016-09-08T05:55:59Z</time>
      </trkpt>
      <trkpt lat="45.78378" lon="4.8588">
        <ele>167</ele>
        <time>2016-09-08T05:56:02Z</time>
      </trkpt>
      <trkpt lat="45.78388" lon="4.85884">
        <ele>170</ele>
        <time>2016-09-08T05:56:08Z</time>
      </trkpt>
      <trkpt lat="45.784" lon="4.85889">
        <ele>167</ele>
        <time>2016-09-08T05:56:14Z</time>
      </trkpt>
      <trkpt lat="45.7841" lon="4.85895">
        <ele>168</ele>
        <time>2016-09-08T05:56:20Z</time>
      </trkpt>
      <trkpt lat="45.78422" lon="4.85897">
        <ele>166</ele>
        <time>2016-09-08T05:56:27Z</time>
      </trkpt>
      <trkpt lat="45.78431" lon="4.85897">
        <ele>168</ele>
        <time>2016-09-08T05:56:32Z</time>
      </trkpt>
      <trkpt lat="45.78441" lon="4.85898">
        <ele>169</ele>
        <time>2016-09-08T05:56:38Z</time>
      </trkpt>
      <trkpt lat="45.78449" lon="4.85897">
        <ele>166</ele>
        <time>2016-09-08T05:56:45Z</time>
      </trkpt>
      <trkpt lat="45.78456" lon="4.8588">
        <ele>168</ele>
        <time>2016-09-08T05:56:52Z</time>
      </trkpt>
      <trkpt lat="45.78464" lon="4.85863">
        <ele>170</ele>
        <time>2016-09-08T05:56:58Z</time>
      </trkpt>
      <trkpt lat="45.78463" lon="4.85851">
        <ele>172</ele>
        <time>2016-09-08T05:57:03Z</time>
      </trkpt>
      <trkpt lat="45.78464" lon="4.85838">
        <ele>171</ele>
        <time>2016-09-08T05:57:08Z</time>
      </trkpt>
      <trkpt lat="45.78462" lon="4.85826">
        <ele>170</ele>
        <time>2016-09-08T05:57:14Z</time>
      </trkpt>
      <trkpt lat="45.78462" lon="4.85815">
        <ele>170</ele>
        <time>2016-09-08T05:57:20Z</time>
      </trkpt>
      <trkpt lat="45.78462" lon="4.85793">
        <ele>171</ele>
        <time>2016-09-08T05:57:30Z</time>
      </trkpt>
      <trkpt lat="45.78464" lon="4.85787">
        <ele>172</ele>
        <time>2016-09-08T05:57:32Z</time>
      </trkpt>
      <trkpt lat="45.78457" lon="4.85752">
        <ele>175</ele>
        <time>2016-09-08T05:57:43Z</time>
      </trkpt>
      <trkpt lat="45.78456" lon="4.85744">
        <ele>170</ele>
        <time>2016-09-08T05:57:46Z</time>
      </trkpt>
      <trkpt lat="45.78451" lon="4.85739">
        <ele>173</ele>
        <time>2016-09-08T05:57:50Z</time>
      </trkpt>
      <trkpt lat="45.78431" lon="4.85707">
        <ele>173</ele>
        <time>2016-09-08T05:58:01Z</time>
      </trkpt>
      <trkpt lat="45.78429" lon="4.85686">
        <ele>169</ele>
        <time>2016-09-08T05:58:05Z</time>
      </trkpt>
      <trkpt lat="45.78431" lon="4.85678">
        <ele>169</ele>
        <time>2016-09-08T05:58:11Z</time>
      </trkpt>
      <trkpt lat="45.78429" lon="4.85662">
        <ele>169</ele>
        <time>2016-09-08T05:58:18Z</time>
      </trkpt>
      <trkpt lat="45.78423" lon="4.85649">
        <ele>168</ele>
        <time>2016-09-08T05:58:24Z</time>
      </trkpt>
      <trkpt lat="45.78421" lon="4.85645">
        <ele>169</ele>
        <time>2016-09-08T05:58:26Z</time>
      </trkpt>
      <trkpt lat="45.78415" lon="4.85622">
        <ele>168</ele>
        <time>2016-09-08T05:58:37Z</time>
      </trkpt>
      <trkpt lat="45.78416" lon="4.85619">
        <ele>169</ele>
        <time>2016-09-08T05:58:38Z</time>
      </trkpt>
      <trkpt lat="45.78425" lon="4.85607">
        <ele>170</ele>
        <time>2016-09-08T05:58:44Z</time>
      </trkpt>
      <trkpt lat="45.78429" lon="4.85591">
        <ele>172</ele>
        <time>2016-09-08T05:58:51Z</time>
      </trkpt>
      <trkpt lat="45.78434" lon="4.85581">
        <ele>174</ele>
        <time>2016-09-08T05:58:56Z</time>
      </trkpt>
      <trkpt lat="45.78438" lon="4.85566">
        <ele>174</ele>
        <time>2016-09-08T05:59:02Z</time>
      </trkpt>
      <trkpt lat="45.78442" lon="4.85546">
        <ele>173</ele>
        <time>2016-09-08T05:59:12Z</time>
      </trkpt>
      <trkpt lat="45.78437" lon="4.85534">
        <ele>176</ele>
        <time>2016-09-08T05:59:18Z</time>
      </trkpt>
      <trkpt lat="45.78435" lon="4.85529">
        <ele>178</ele>
        <time>2016-09-08T05:59:20Z</time>
      </trkpt>
      <trkpt lat="45.78432" lon="4.85502">
        <ele>179</ele>
        <time>2016-09-08T05:59:31Z</time>
      </trkpt>
      <trkpt lat="45.78432" lon="4.855">
        <ele>177</ele>
        <time>2016-09-08T05:59:32Z</time>
      </trkpt>
      <trkpt lat="45.78429" lon="4.85481">
        <ele>169</ele>
        <time>2016-09-08T05:59:41Z</time>
      </trkpt>
      <trkpt lat="45.78426" lon="4.85475">
        <ele>168</ele>
        <time>2016-09-08T05:59:44Z</time>
      </trkpt>
      <trkpt lat="45.78422" lon="4.85462">
        <ele>169</ele>
        <time>2016-09-08T05:59:50Z</time>
      </trkpt>
      <trkpt lat="45.78414" lon="4.85442">
        <ele>172</ele>
        <time>2016-09-08T06:00:00Z</time>
      </trkpt>
      <trkpt lat="45.78414" lon="4.85437">
        <ele>168</ele>
        <time>2016-09-08T06:00:02Z</time>
      </trkpt>
      <trkpt lat="45.78416" lon="4.85421">
        <ele>168</ele>
        <time>2016-09-08T06:00:08Z</time>
      </trkpt>
      <trkpt lat="45.78414" lon="4.85407">
        <ele>165</ele>
        <time>2016-09-08T06:00:14Z</time>
      </trkpt>
      <trkpt lat="45.7841" lon="4.85392">
        <ele>169</ele>
        <time>2016-09-08T06:00:20Z</time>
      </trkpt>
      <trkpt lat="45.78402" lon="4.85365">
        <ele>168</ele>
        <time>2016-09-08T06:00:31Z</time>
      </trkpt>
      <trkpt lat="45.784" lon="4.85353">
        <ele>169</ele>
        <time>2016-09-08T06:00:36Z</time>
      </trkpt>
      <trkpt lat="45.784" lon="4.85349">
        <ele>170</ele>
        <time>2016-09-08T06:00:38Z</time>
      </trkpt>
      <trkpt lat="45.78393" lon="4.85337">
        <ele>170</ele>
        <time>2016-09-08T06:00:44Z</time>
      </trkpt>
      <trkpt lat="45.78387" lon="4.85323">
        <ele>169</ele>
        <time>2016-09-08T06:00:50Z</time>
      </trkpt>
      <trkpt lat="45.78382" lon="4.85311">
        <ele>170</ele>
        <time>2016-09-08T06:00:56Z</time>
      </trkpt>
      <trkpt lat="45.78371" lon="4.85297">
        <ele>165</ele>
        <time>2016-09-08T06:01:04Z</time>
      </trkpt>
      <trkpt lat="45.78369" lon="4.85274">
        <ele>165</ele>
        <time>2016-09-08T06:01:12Z</time>
      </trkpt>
      <trkpt lat="45.78369" lon="4.85269">
        <ele>165</ele>
        <time>2016-09-08T06:01:14Z</time>
      </trkpt>
      <trkpt lat="45.78361" lon="4.8525">
        <ele>167</ele>
        <time>2016-09-08T06:01:23Z</time>
      </trkpt>
      <trkpt lat="45.78358" lon="4.85244">
        <ele>166</ele>
        <time>2016-09-08T06:01:26Z</time>
      </trkpt>
      <trkpt lat="45.78351" lon="4.85229">
        <ele>170</ele>
        <time>2016-09-08T06:01:33Z</time>
      </trkpt>
      <trkpt lat="45.78343" lon="4.85226">
        <ele>170</ele>
        <time>2016-09-08T06:01:38Z</time>
      </trkpt>
      <trkpt lat="45.78337" lon="4.85213">
        <ele>169</ele>
        <time>2016-09-08T06:01:44Z</time>
      </trkpt>
      <trkpt lat="45.78325" lon="4.8519">
        <ele>169</ele>
        <time>2016-09-08T06:01:54Z</time>
      </trkpt>
      <trkpt lat="45.78323" lon="4.85186">
        <ele>170</ele>
        <time>2016-09-08T06:01:56Z</time>
      </trkpt>
      <trkpt lat="45.78318" lon="4.85172">
        <ele>167</ele>
        <time>2016-09-08T06:02:04Z</time>
      </trkpt>
      <trkpt lat="45.78316" lon="4.85163">
        <ele>165</ele>
        <time>2016-09-08T06:02:08Z</time>
      </trkpt>
      <trkpt lat="45.7831" lon="4.85145">
        <ele>169</ele>
        <time>2016-09-08T06:02:16Z</time>
      </trkpt>
      <trkpt lat="45.78305" lon="4.85139">
        <ele>169</ele>
        <time>2016-09-08T06:02:20Z</time>
      </trkpt>
      <trkpt lat="45.783" lon="4.85129">
        <ele>169</ele>
        <time>2016-09-08T06:02:26Z</time>
      </trkpt>
      <trkpt lat="45.78291" lon="4.85113">
        <ele>164</ele>
        <time>2016-09-08T06:02:35Z</time>
      </trkpt>
      <trkpt lat="45.78286" lon="4.85106">
        <ele>164</ele>
        <time>2016-09-08T06:02:38Z</time>
      </trkpt>
      <trkpt lat="45.78277" lon="4.85092">
        <ele>161</ele>
        <time>2016-09-08T06:02:45Z</time>
      </trkpt>
      <trkpt lat="45.7827" lon="4.85081">
        <ele>159</ele>
        <time>2016-09-08T06:02:52Z</time>
      </trkpt>
      <trkpt lat="45.7827" lon="4.85074">
        <ele>158</ele>
        <time>2016-09-08T06:02:56Z</time>
      </trkpt>
      <trkpt lat="45.7825" lon="4.85051">
        <ele>158</ele>
        <time>2016-09-08T06:03:06Z</time>
      </trkpt>
      <trkpt lat="45.78247" lon="4.85042">
        <ele>160</ele>
        <time>2016-09-08T06:03:11Z</time>
      </trkpt>
      <trkpt lat="45.78243" lon="4.85036">
        <ele>162</ele>
        <time>2016-09-08T06:03:14Z</time>
      </trkpt>
      <trkpt lat="45.78236" lon="4.85021">
        <ele>163</ele>
        <time>2016-09-08T06:03:20Z</time>
      </trkpt>
      <trkpt lat="45.78225" lon="4.84996">
        <ele>164</ele>
        <time>2016-09-08T06:03:31Z</time>
      </trkpt>
      <trkpt lat="45.78224" lon="4.84993">
        <ele>163</ele>
        <time>2016-09-08T06:03:32Z</time>
      </trkpt>
      <trkpt lat="45.78221" lon="4.84974">
        <ele>162</ele>
        <time>2016-09-08T06:03:41Z</time>
      </trkpt>
      <trkpt lat="45.78219" lon="4.84966">
        <ele>164</ele>
        <time>2016-09-08T06:03:45Z</time>
      </trkpt>
      <trkpt lat="45.78213" lon="4.84955">
        <ele>165</ele>
        <time>2016-09-08T06:03:51Z</time>
      </trkpt>
      <trkpt lat="45.78204" lon="4.84948">
        <ele>166</ele>
        <time>2016-09-08T06:03:57Z</time>
      </trkpt>
      <trkpt lat="45.78199" lon="4.84935">
        <ele>161</ele>
        <time>2016-09-08T06:04:04Z</time>
      </trkpt>
      <trkpt lat="45.78195" lon="4.84928">
        <ele>165</ele>
        <time>2016-09-08T06:04:08Z</time>
      </trkpt>
      <trkpt lat="45.78185" lon="4.84919">
        <ele>166</ele>
        <time>2016-09-08T06:04:14Z</time>
      </trkpt>
      <trkpt lat="45.78174" lon="4.84914">
        <ele>168</ele>
        <time>2016-09-08T06:04:20Z</time>
      </trkpt>
      <trkpt lat="45.78163" lon="4.84909">
        <ele>167</ele>
        <time>2016-09-08T06:04:26Z</time>
      </trkpt>
      <trkpt lat="45.78155" lon="4.84905">
        <ele>169</ele>
        <time>2016-09-08T06:04:32Z</time>
      </trkpt>
      <trkpt lat="45.78147" lon="4.849">
        <ele>167</ele>
        <time>2016-09-08T06:04:38Z</time>
      </trkpt>
      <trkpt lat="45.78141" lon="4.84893">
        <ele>163</ele>
        <time>2016-09-08T06:04:44Z</time>
      </trkpt>
      <trkpt lat="45.78122" lon="4.84852">
        <ele>167</ele>
        <time>2016-09-08T06:04:54Z</time>
      </trkpt>
      <trkpt lat="45.78121" lon="4.84845">
        <ele>166</ele>
        <time>2016-09-08T06:04:57Z</time>
      </trkpt>
      <trkpt lat="45.78119" lon="4.84838">
        <ele>167</ele>
        <time>2016-09-08T06:05:02Z</time>
      </trkpt>
      <trkpt lat="45.78113" lon="4.84834">
        <ele>163</ele>
        <time>2016-09-08T06:05:08Z</time>
      </trkpt>
      <trkpt lat="45.78106" lon="4.84825">
        <ele>163</ele>
        <time>2016-09-08T06:05:15Z</time>
      </trkpt>
      <trkpt lat="45.78104" lon="4.84816">
        <ele>161</ele>
        <time>2016-09-08T06:05:20Z</time>
      </trkpt>
      <trkpt lat="45.78099" lon="4.84802">
        <ele>160</ele>
        <time>2016-09-08T06:05:28Z</time>
      </trkpt>
      <trkpt lat="45.78087" lon="4.84799">
        <ele>161</ele>
        <time>2016-09-08T06:05:34Z</time>
      </trkpt>
      <trkpt lat="45.78079" lon="4.84797">
        <ele>159</ele>
        <time>2016-09-08T06:05:42Z</time>
      </trkpt>
      <trkpt lat="45.78075" lon="4.84776">
        <ele>164</ele>
        <time>2016-09-08T06:05:50Z</time>
      </trkpt>
      <trkpt lat="45.78072" lon="4.84771">
        <ele>162</ele>
        <time>2016-09-08T06:05:52Z</time>
      </trkpt>
      <trkpt lat="45.78068" lon="4.84755">
        <ele>162</ele>
        <time>2016-09-08T06:05:58Z</time>
      </trkpt>
      <trkpt lat="45.78053" lon="4.84727">
        <ele>163</ele>
        <time>2016-09-08T06:06:09Z</time>
      </trkpt>
      <trkpt lat="45.78052" lon="4.84723">
        <ele>163</ele>
        <time>2016-09-08T06:06:11Z</time>
      </trkpt>
      <trkpt lat="45.78054" lon="4.84715">
        <ele>167</ele>
        <time>2016-09-08T06:06:16Z</time>
      </trkpt>
      <trkpt lat="45.78018" lon="4.84714">
        <ele>169</ele>
        <time>2016-09-08T06:06:26Z</time>
      </trkpt>
      <trkpt lat="45.78011" lon="4.84708">
        <ele>171</ele>
        <time>2016-09-08T06:06:31Z</time>
      </trkpt>
      <trkpt lat="45.78009" lon="4.84704">
        <ele>170</ele>
        <time>2016-09-08T06:06:34Z</time>
      </trkpt>
      <trkpt lat="45.78003" lon="4.84691">
        <ele>175</ele>
        <time>2016-09-08T06:06:41Z</time>
      </trkpt>
      <trkpt lat="45.77991" lon="4.84675">
        <ele>178</ele>
        <time>2016-09-08T06:06:51Z</time>
      </trkpt>
      <trkpt lat="45.77989" lon="4.84675">
        <ele>178</ele>
        <time>2016-09-08T06:06:52Z</time>
      </trkpt>
      <trkpt lat="45.77976" lon="4.84658">
        <ele>175</ele>
        <time>2016-09-08T06:07:03Z</time>
      </trkpt>
      <trkpt lat="45.77974" lon="4.84655">
        <ele>175</ele>
        <time>2016-09-08T06:07:05Z</time>
      </trkpt>
      <trkpt lat="45.77966" lon="4.84644">
        <ele>179</ele>
        <time>2016-09-08T06:07:14Z</time>
      </trkpt>
      <trkpt lat="45.77955" lon="4.84639">
        <ele>176</ele>
        <time>2016-09-08T06:07:19Z</time>
      </trkpt>
      <trkpt lat="45.7795" lon="4.84631">
        <ele>171</ele>
        <time>2016-09-08T06:07:22Z</time>
      </trkpt>
      <trkpt lat="45.77941" lon="4.84619">
        <ele>168</ele>
        <time>2016-09-08T06:07:28Z</time>
      </trkpt>
      <trkpt lat="45.77933" lon="4.84614">
        <ele>169</ele>
        <time>2016-09-08T06:07:34Z</time>
      </trkpt>
      <trkpt lat="45.77921" lon="4.84599">
        <ele>168</ele>
        <time>2016-09-08T06:07:43Z</time>
      </trkpt>
      <trkpt lat="45.77915" lon="4.84596">
        <ele>167</ele>
        <time>2016-09-08T06:07:46Z</time>
      </trkpt>
      <trkpt lat="45.77899" lon="4.84586">
        <ele>169</ele>
        <time>2016-09-08T06:07:56Z</time>
      </trkpt>
      <trkpt lat="45.77889" lon="4.84587">
        <ele>167</ele>
        <time>2016-09-08T06:08:01Z</time>
      </trkpt>
      <trkpt lat="45.77884" lon="4.84587">
        <ele>168</ele>
        <time>2016-09-08T06:08:04Z</time>
      </trkpt>
      <trkpt lat="45.77878" lon="4.84577">
        <ele>166</ele>
        <time>2016-09-08T06:08:11Z</time>
      </trkpt>
      <trkpt lat="45.7787" lon="4.84564">
        <ele>162</ele>
        <time>2016-09-08T06:08:21Z</time>
      </trkpt>
      <trkpt lat="45.77869" lon="4.84562">
        <ele>161</ele>
        <time>2016-09-08T06:08:22Z</time>
      </trkpt>
      <trkpt lat="45.77855" lon="4.84555">
        <ele>161</ele>
        <time>2016-09-08T06:08:30Z</time>
      </trkpt>
      <trkpt lat="45.77844" lon="4.8455">
        <ele>165</ele>
        <time>2016-09-08T06:08:35Z</time>
      </trkpt>
      <trkpt lat="45.77827" lon="4.84536">
        <ele>168</ele>
        <time>2016-09-08T06:08:45Z</time>
      </trkpt>
      <trkpt lat="45.77825" lon="4.84534">
        <ele>167</ele>
        <time>2016-09-08T06:08:46Z</time>
      </trkpt>
      <trkpt lat="45.77815" lon="4.84528">
        <ele>174</ele>
        <time>2016-09-08T06:08:53Z</time>
      </trkpt>
      <trkpt lat="45.77808" lon="4.84523">
        <ele>176</ele>
        <time>2016-09-08T06:08:58Z</time>
      </trkpt>
      <trkpt lat="45.77799" lon="4.84518">
        <ele>178</ele>
        <time>2016-09-08T06:09:04Z</time>
      </trkpt>
      <trkpt lat="45.77784" lon="4.84515">
        <ele>174</ele>
        <time>2016-09-08T06:09:14Z</time>
      </trkpt>
      <trkpt lat="45.77781" lon="4.84514">
        <ele>175</ele>
        <time>2016-09-08T06:09:16Z</time>
      </trkpt>
      <trkpt lat="45.77762" lon="4.84519">
        <ele>182</ele>
        <time>2016-09-08T06:09:27Z</time>
      </trkpt>
      <trkpt lat="45.7776" lon="4.8452">
        <ele>183</ele>
        <time>2016-09-08T06:09:28Z</time>
      </trkpt>
      <trkpt lat="45.7775" lon="4.84523">
        <ele>181</ele>
        <time>2016-09-08T06:09:34Z</time>
      </trkpt>
      <trkpt lat="45.7774" lon="4.84516">
        <ele>181</ele>
        <time>2016-09-08T06:09:40Z</time>
      </trkpt>
      <trkpt lat="45.77725" lon="4.84507">
        <ele>178</ele>
        <time>2016-09-08T06:09:47Z</time>
      </trkpt>
      <trkpt lat="45.77711" lon="4.84499">
        <ele>175</ele>
        <time>2016-09-08T06:09:53Z</time>
      </trkpt>
      <trkpt lat="45.7771" lon="4.84481">
        <ele>174</ele>
        <time>2016-09-08T06:10:02Z</time>
      </trkpt>
      <trkpt lat="45.77711" lon="4.84485">
        <ele>173</ele>
        <time>2016-09-08T06:10:04Z</time>
      </trkpt>
      <trkpt lat="45.77709" lon="4.84482">
        <ele>173</ele>
        <time>2016-09-08T06:10:12Z</time>
      </trkpt>
      <trkpt lat="45.77708" lon="4.84479">
        <ele>173</ele>
        <time>2016-09-08T06:10:16Z</time>
      </trkpt>
      <trkpt lat="45.77702" lon="4.84465">
        <ele>168</ele>
        <time>2016-09-08T06:10:22Z</time>
      </trkpt>
      <trkpt lat="45.77693" lon="4.84451">
        <ele>169</ele>
        <time>2016-09-08T06:10:28Z</time>
      </trkpt>
      <trkpt lat="45.77678" lon="4.84436">
        <ele>169</ele>
        <time>2016-09-08T06:10:36Z</time>
      </trkpt>
      <trkpt lat="45.77667" lon="4.84428">
        <ele>168</ele>
        <time>2016-09-08T06:10:45Z</time>
      </trkpt>
      <trkpt lat="45.77666" lon="4.84427">
        <ele>167</ele>
        <time>2016-09-08T06:10:46Z</time>
      </trkpt>
      <trkpt lat="45.77668" lon="4.84411">
        <ele>174</ele>
        <time>2016-09-08T06:10:55Z</time>
      </trkpt>
      <trkpt lat="45.77669" lon="4.84396">
        <ele>173</ele>
        <time>2016-09-08T06:11:01Z</time>
      </trkpt>
      <trkpt lat="45.77675" lon="4.8439">
        <ele>176</ele>
        <time>2016-09-08T06:11:05Z</time>
      </trkpt>
      <trkpt lat="45.77672" lon="4.84387">
        <ele>178</ele>
        <time>2016-09-08T06:11:15Z</time>
      </trkpt>
      <trkpt lat="45.77671" lon="4.84387">
        <ele>177</ele>
        <time>2016-09-08T06:11:18Z</time>
      </trkpt>
      <trkpt lat="45.7767" lon="4.84387">
        <ele>177</ele>
        <time>2016-09-08T06:11:23Z</time>
      </trkpt>
      <trkpt lat="45.7767" lon="4.84387">
        <ele>177</ele>
        <time>2016-09-08T06:11:34Z</time>
      </trkpt>
      <trkpt lat="45.7767" lon="4.84387">
        <ele>177</ele>
        <time>2016-09-08T06:11:35Z</time>
      </trkpt>
      <trkpt lat="45.7767" lon="4.84387">
        <ele>177</ele>
        <time>2016-09-08T06:11:41Z</time>
      </trkpt>
      <trkpt lat="45.77679" lon="4.8438">
        <ele>180</ele>
        <time>2016-09-08T06:11:50Z</time>
      </trkpt>
      <trkpt lat="45.77685" lon="4.84379">
        <ele>179</ele>
        <time>2016-09-08T06:11:53Z</time>
      </trkpt>
      <trkpt lat="45.77703" lon="4.84381">
        <ele>173</ele>
        <time>2016-09-08T06:12:02Z</time>
      </trkpt>
      <trkpt lat="45.77708" lon="4.84382">
        <ele>175</ele>
        <time>2016-09-08T06:12:05Z</time>
      </trkpt>
      <trkpt lat="45.77719" lon="4.84384">
        <ele>177</ele>
        <time>2016-09-08T06:12:12Z</time>
      </trkpt>
      <trkpt lat="45.77728" lon="4.84384">
        <ele>177</ele>
        <time>2016-09-08T06:12:17Z</time>
      </trkpt>
      <trkpt lat="45.77737" lon="4.84386">
        <ele>177</ele>
        <time>2016-09-08T06:12:23Z</time>
      </trkpt>
      <trkpt lat="45.77746" lon="4.84391">
        <ele>171</ele>
        <time>2016-09-08T06:12:29Z</time>
      </trkpt>
      <trkpt lat="45.77755" lon="4.84394">
        <ele>172</ele>
        <time>2016-09-08T06:12:35Z</time>
      </trkpt>
      <trkpt lat="45.77759" lon="4.84383">
        <ele>173</ele>
        <time>2016-09-08T06:12:41Z</time>
      </trkpt>
      <trkpt lat="45.77751" lon="4.84375">
        <ele>176</ele>
        <time>2016-09-08T06:12:47Z</time>
      </trkpt>
      <trkpt lat="45.77738" lon="4.84374">
        <ele>179</ele>
        <time>2016-09-08T06:12:54Z</time>
      </trkpt>
      <trkpt lat="45.77726" lon="4.84373">
        <ele>181</ele>
        <time>2016-09-08T06:13:00Z</time>
      </trkpt>
      <trkpt lat="45.77714" lon="4.84375">
        <ele>182</ele>
        <time>2016-09-08T06:13:05Z</time>
      </trkpt>
      <trkpt lat="45.77699" lon="4.84368">
        <ele>182</ele>
        <time>2016-09-08T06:13:15Z</time>
      </trkpt>
      <trkpt lat="45.77694" lon="4.84367">
        <ele>182</ele>
        <time>2016-09-08T06:13:17Z</time>
      </trkpt>
      <trkpt lat="45.77689" lon="4.84356">
        <ele>179</ele>
        <time>2016-09-08T06:13:23Z</time>
      </trkpt>
      <trkpt lat="45.77677" lon="4.84353">
        <ele>177</ele>
        <time>2016-09-08T06:13:29Z</time>
      </trkpt>
      <trkpt lat="45.77668" lon="4.8435">
        <ele>185</ele>
        <time>2016-09-08T06:13:35Z</time>
      </trkpt>
      <trkpt lat="45.77656" lon="4.84338">
        <ele>186</ele>
        <time>2016-09-08T06:13:45Z</time>
      </trkpt>
      <trkpt lat="45.77653" lon="4.84338">
        <ele>186</ele>
        <time>2016-09-08T06:13:47Z</time>
      </trkpt>
      <trkpt lat="45.77639" lon="4.84326">
        <ele>188</ele>
        <time>2016-09-08T06:13:57Z</time>
      </trkpt>
      <trkpt lat="45.77635" lon="4.84327">
        <ele>188</ele>
        <time>2016-09-08T06:13:59Z</time>
      </trkpt>
      <trkpt lat="45.77618" lon="4.84321">
        <ele>194</ele>
        <time>2016-09-08T06:14:09Z</time>
      </trkpt>
      <trkpt lat="45.77614" lon="4.8432">
        <ele>190</ele>
        <time>2016-09-08T06:14:11Z</time>
      </trkpt>
      <trkpt lat="45.77591" lon="4.84308">
        <ele>182</ele>
        <time>2016-09-08T06:14:22Z</time>
      </trkpt>
      <trkpt lat="45.77584" lon="4.84298">
        <ele>181</ele>
        <time>2016-09-08T06:14:27Z</time>
      </trkpt>
      <trkpt lat="45.77582" lon="4.84296">
        <ele>180</ele>
        <time>2016-09-08T06:14:29Z</time>
      </trkpt>
      <trkpt lat="45.77572" lon="4.84287">
        <ele>185</ele>
        <time>2016-09-08T06:14:36Z</time>
      </trkpt>
      <trkpt lat="45.77558" lon="4.84282">
        <ele>186</ele>
        <time>2016-09-08T06:14:43Z</time>
      </trkpt>
      <trkpt lat="45.77552" lon="4.84276">
        <ele>185</ele>
        <time>2016-09-08T06:14:47Z</time>
      </trkpt>
      <trkpt lat="45.77544" lon="4.84269">
        <ele>190</ele>
        <time>2016-09-08T06:14:53Z</time>
      </trkpt>
      <trkpt lat="45.77534" lon="4.84258">
        <ele>185</ele>
        <time>2016-09-08T06:15:03Z</time>
      </trkpt>
      <trkpt lat="45.77529" lon="4.8425">
        <ele>183</ele>
        <time>2016-09-08T06:15:07Z</time>
      </trkpt>
      <trkpt lat="45.7752" lon="4.84243">
        <ele>187</ele>
        <time>2016-09-08T06:15:16Z</time>
      </trkpt>
      <trkpt lat="45.77519" lon="4.84241">
        <ele>186</ele>
        <time>2016-09-08T06:15:17Z</time>
      </trkpt>
      <trkpt lat="45.77506" lon="4.84235">
        <ele>181</ele>
        <time>2016-09-08T06:15:24Z</time>
      </trkpt>
      <trkpt lat="45.77488" lon="4.84228">
        <ele>172</ele>
        <time>2016-09-08T06:15:32Z</time>
      </trkpt>
      <trkpt lat="45.77483" lon="4.84224">
        <ele>173</ele>
        <time>2016-09-08T06:15:35Z</time>
      </trkpt>
      <trkpt lat="45.77471" lon="4.84206">
        <ele>180</ele>
        <time>2016-09-08T06:15:46Z</time>
      </trkpt>
      <trkpt lat="45.77468" lon="4.84206">
        <ele>178</ele>
        <time>2016-09-08T06:15:47Z</time>
      </trkpt>
      <trkpt lat="45.77453" lon="4.84196">
        <ele>173</ele>
        <time>2016-09-08T06:15:56Z</time>
      </trkpt>
      <trkpt lat="45.7745" lon="4.8419">
        <ele>171</ele>
        <time>2016-09-08T06:15:59Z</time>
      </trkpt>
      <trkpt lat="45.7744" lon="4.84177">
        <ele>174</ele>
        <time>2016-09-08T06:16:08Z</time>
      </trkpt>
      <trkpt lat="45.77433" lon="4.84174">
        <ele>175</ele>
        <time>2016-09-08T06:16:13Z</time>
      </trkpt>
      <trkpt lat="45.77427" lon="4.84169">
        <ele>175</ele>
        <time>2016-09-08T06:16:17Z</time>
      </trkpt>
      <trkpt lat="45.77402" lon="4.84166">
        <ele>179</ele>
        <time>2016-09-08T06:16:27Z</time>
      </trkpt>
      <trkpt lat="45.77384" lon="4.8417">
        <ele>184</ele>
        <time>2016-09-08T06:16:34Z</time>
      </trkpt>
      <trkpt lat="45.77382" lon="4.84163">
        <ele>182</ele>
        <time>2016-09-08T06:16:38Z</time>
      </trkpt>
      <trkpt lat="45.7738" lon="4.8416">
        <ele>179</ele>
        <time>2016-09-08T06:16:41Z</time>
      </trkpt>
      <trkpt lat="45.77371" lon="4.84142">
        <ele>178</ele>
        <time>2016-09-08T06:16:51Z</time>
      </trkpt>
      <trkpt lat="45.77366" lon="4.8414">
        <ele>178</ele>
        <time>2016-09-08T06:16:54Z</time>
      </trkpt>
      <trkpt lat="45.77353" lon="4.84129">
        <ele>181</ele>
        <time>2016-09-08T06:17:02Z</time>
      </trkpt>
      <trkpt lat="45.77347" lon="4.84126">
        <ele>181</ele>
        <time>2016-09-08T06:17:05Z</time>
      </trkpt>
      <trkpt lat="45.77337" lon="4.84118">
        <ele>174</ele>
        <time>2016-09-08T06:17:11Z</time>
      </trkpt>
      <trkpt lat="45.7733" lon="4.8411">
        <ele>178</ele>
        <time>2016-09-08T06:17:17Z</time>
      </trkpt>
      <trkpt lat="45.77325" lon="4.84102">
        <ele>170</ele>
        <time>2016-09-08T06:17:23Z</time>
      </trkpt>
      <trkpt lat="45.77316" lon="4.84094">
        <ele>171</ele>
        <time>2016-09-08T06:17:29Z</time>
      </trkpt>
      <trkpt lat="45.77308" lon="4.84091">
        <ele>168</ele>
        <time>2016-09-08T06:17:36Z</time>
      </trkpt>
      <trkpt lat="45.77297" lon="4.8409">
        <ele>170</ele>
        <time>2016-09-08T06:17:41Z</time>
      </trkpt>
      <trkpt lat="45.77286" lon="4.84077">
        <ele>176</ele>
        <time>2016-09-08T06:17:50Z</time>
      </trkpt>
      <trkpt lat="45.77281" lon="4.84074">
        <ele>175</ele>
        <time>2016-09-08T06:17:53Z</time>
      </trkpt>
      <trkpt lat="45.77263" lon="4.84069">
        <ele>171</ele>
        <time>2016-09-08T06:18:04Z</time>
      </trkpt>
      <trkpt lat="45.77261" lon="4.84069">
        <ele>171</ele>
        <time>2016-09-08T06:18:05Z</time>
      </trkpt>
      <trkpt lat="45.77252" lon="4.84064">
        <ele>173</ele>
        <time>2016-09-08T06:18:11Z</time>
      </trkpt>
      <trkpt lat="45.77221" lon="4.84061">
        <ele>163</ele>
        <time>2016-09-08T06:18:36Z</time>
      </trkpt>
      <trkpt lat="45.77209" lon="4.84064">
        <ele>166</ele>
        <time>2016-09-08T06:18:41Z</time>
      </trkpt>
      <trkpt lat="45.77194" lon="4.84063">
        <ele>171</ele>
        <time>2016-09-08T06:18:48Z</time>
      </trkpt>
      <trkpt lat="45.77192" lon="4.84063">
        <ele>171</ele>
        <time>2016-09-08T06:18:49Z</time>
      </trkpt>
      <trkpt lat="45.77173" lon="4.84065">
        <ele>177</ele>
        <time>2016-09-08T06:18:59Z</time>
      </trkpt>
      <trkpt lat="45.7717" lon="4.84065">
        <ele>177</ele>
        <time>2016-09-08T06:19:01Z</time>
      </trkpt>
      <trkpt lat="45.77155" lon="4.84065">
        <ele>172</ele>
        <time>2016-09-08T06:19:10Z</time>
      </trkpt>
      <trkpt lat="45.77149" lon="4.84064">
        <ele>173</ele>
        <time>2016-09-08T06:19:13Z</time>
      </trkpt>
      <trkpt lat="45.77137" lon="4.84061">
        <ele>174</ele>
        <time>2016-09-08T06:19:19Z</time>
      </trkpt>
      <trkpt lat="45.77119" lon="4.84059">
        <ele>178</ele>
        <time>2016-09-08T06:19:30Z</time>
      </trkpt>
      <trkpt lat="45.77117" lon="4.8406">
        <ele>178</ele>
        <time>2016-09-08T06:19:31Z</time>
      </trkpt>
      <trkpt lat="45.77105" lon="4.8406">
        <ele>178</ele>
        <time>2016-09-08T06:19:37Z</time>
      </trkpt>
      <trkpt lat="45.77095" lon="4.84062">
        <ele>176</ele>
        <time>2016-09-08T06:19:43Z</time>
      </trkpt>
      <trkpt lat="45.7708" lon="4.84071">
        <ele>180</ele>
        <time>2016-09-08T06:19:52Z</time>
      </trkpt>
      <trkpt lat="45.77073" lon="4.84073">
        <ele>184</ele>
        <time>2016-09-08T06:19:55Z</time>
      </trkpt>
      <trkpt lat="45.77063" lon="4.84072">
        <ele>182</ele>
        <time>2016-09-08T06:20:01Z</time>
      </trkpt>
      <trkpt lat="45.77053" lon="4.84073">
        <ele>183</ele>
        <time>2016-09-08T06:20:09Z</time>
      </trkpt>
      <trkpt lat="45.77041" lon="4.84069">
        <ele>184</ele>
        <time>2016-09-08T06:20:15Z</time>
      </trkpt>
      <trkpt lat="45.77024" lon="4.84071">
        <ele>185</ele>
        <time>2016-09-08T06:20:23Z</time>
      </trkpt>
      <trkpt lat="45.77016" lon="4.84072">
        <ele>187</ele>
        <time>2016-09-08T06:20:27Z</time>
      </trkpt>
      <trkpt lat="45.77002" lon="4.84072">
        <ele>191</ele>
        <time>2016-09-08T06:20:36Z</time>
      </trkpt>
      <trkpt lat="45.77" lon="4.84071">
        <ele>190</ele>
        <time>2016-09-08T06:20:37Z</time>
      </trkpt>
      <trkpt lat="45.76995" lon="4.84066">
        <ele>190</ele>
        <time>2016-09-08T06:20:43Z</time>
      </trkpt>
      <trkpt lat="45.76983" lon="4.84068">
        <ele>186</ele>
        <time>2016-09-08T06:20:49Z</time>
      </trkpt>
      <trkpt lat="45.76965" lon="4.84078">
        <ele>191</ele>
        <time>2016-09-08T06:20:57Z</time>
      </trkpt>
      <trkpt lat="45.76955" lon="4.84077">
        <ele>193</ele>
        <time>2016-09-08T06:21:02Z</time>
      </trkpt>
      <trkpt lat="45.76943" lon="4.84076">
        <ele>196</ele>
        <time>2016-09-08T06:21:10Z</time>
      </trkpt>
      <trkpt lat="45.7693" lon="4.84081">
        <ele>196</ele>
        <time>2016-09-08T06:21:15Z</time>
      </trkpt>
      <trkpt lat="45.76925" lon="4.84076">
        <ele>193</ele>
        <time>2016-09-08T06:21:19Z</time>
      </trkpt>
      <trkpt lat="45.76909" lon="4.84074">
        <ele>187</ele>
        <time>2016-09-08T06:21:29Z</time>
      </trkpt>
      <trkpt lat="45.76904" lon="4.8407">
        <ele>184</ele>
        <time>2016-09-08T06:21:34Z</time>
      </trkpt>
      <trkpt lat="45.76898" lon="4.84071">
        <ele>183</ele>
        <time>2016-09-08T06:21:37Z</time>
      </trkpt>
      <trkpt lat="45.76883" lon="4.84069">
        <ele>171</ele>
        <time>2016-09-08T06:21:44Z</time>
      </trkpt>
      <trkpt lat="45.76877" lon="4.84066">
        <ele>168</ele>
        <time>2016-09-08T06:21:49Z</time>
      </trkpt>
      <trkpt lat="45.76869" lon="4.84065">
        <ele>171</ele>
        <time>2016-09-08T06:21:55Z</time>
      </trkpt>
      <trkpt lat="45.76858" lon="4.84066">
        <ele>171</ele>
        <time>2016-09-08T06:22:06Z</time>
      </trkpt>
      <trkpt lat="45.76843" lon="4.84067">
        <ele>169</ele>
        <time>2016-09-08T06:22:12Z</time>
      </trkpt>
      <trkpt lat="45.76838" lon="4.84067">
        <ele>172</ele>
        <time>2016-09-08T06:22:15Z</time>
      </trkpt>
      <trkpt lat="45.7683" lon="4.84069">
        <ele>172</ele>
        <time>2016-09-08T06:22:19Z</time>
      </trkpt>
      <trkpt lat="45.76816" lon="4.84067">
        <ele>176</ele>
        <time>2016-09-08T06:22:28Z</time>
      </trkpt>
      <trkpt lat="45.76809" lon="4.84069">
        <ele>176</ele>
        <time>2016-09-08T06:22:33Z</time>
      </trkpt>
      <trkpt lat="45.768" lon="4.84074">
        <ele>177</ele>
        <time>2016-09-08T06:22:37Z</time>
      </trkpt>
      <trkpt lat="45.7679" lon="4.84073">
        <ele>180</ele>
        <time>2016-09-08T06:22:43Z</time>
      </trkpt>
      <trkpt lat="45.76783" lon="4.84071">
        <ele>179</ele>
        <time>2016-09-08T06:22:49Z</time>
      </trkpt>
      <trkpt lat="45.76772" lon="4.84072">
        <ele>181</ele>
        <time>2016-09-08T06:22:55Z</time>
      </trkpt>
      <trkpt lat="45.76763" lon="4.84073">
        <ele>177</ele>
        <time>2016-09-08T06:23:01Z</time>
      </trkpt>
      <trkpt lat="45.76747" lon="4.84073">
        <ele>180</ele>
        <time>2016-09-08T06:23:11Z</time>
      </trkpt>
      <trkpt lat="45.76741" lon="4.84074">
        <ele>180</ele>
        <time>2016-09-08T06:23:13Z</time>
      </trkpt>
      <trkpt lat="45.76724" lon="4.84077">
        <ele>178</ele>
        <time>2016-09-08T06:23:24Z</time>
      </trkpt>
      <trkpt lat="45.76718" lon="4.84079">
        <ele>177</ele>
        <time>2016-09-08T06:23:28Z</time>
      </trkpt>
      <trkpt lat="45.76709" lon="4.84081">
        <ele>178</ele>
        <time>2016-09-08T06:23:33Z</time>
      </trkpt>
      <trkpt lat="45.76695" lon="4.84084">
        <ele>179</ele>
        <time>2016-09-08T06:23:40Z</time>
      </trkpt>
      <trkpt lat="45.76692" lon="4.84084">
        <ele>181</ele>
        <time>2016-09-08T06:23:43Z</time>
      </trkpt>
      <trkpt lat="45.76682" lon="4.84084">
        <ele>181</ele>
        <time>2016-09-08T06:23:49Z</time>
      </trkpt>
      <trkpt lat="45.76669" lon="4.84088">
        <ele>177</ele>
        <time>2016-09-08T06:23:56Z</time>
      </trkpt>
      <trkpt lat="45.76655" lon="4.84088">
        <ele>172</ele>
        <time>2016-09-08T06:24:04Z</time>
      </trkpt>
      <trkpt lat="45.76649" lon="4.84087">
        <ele>171</ele>
        <time>2016-09-08T06:24:07Z</time>
      </trkpt>
      <trkpt lat="45.76631" lon="4.84089">
        <ele>170</ele>
        <time>2016-09-08T06:24:18Z</time>
      </trkpt>
      <trkpt lat="45.76629" lon="4.8409">
        <ele>170</ele>
        <time>2016-09-08T06:24:19Z</time>
      </trkpt>
      <trkpt lat="45.76619" lon="4.84094">
        <ele>174</ele>
        <time>2016-09-08T06:24:25Z</time>
      </trkpt>
      <trkpt lat="45.76604" lon="4.84098">
        <ele>176</ele>
        <time>2016-09-08T06:24:31Z</time>
      </trkpt>
      <trkpt lat="45.7659" lon="4.84098">
        <ele>175</ele>
        <time>2016-09-08T06:24:41Z</time>
      </trkpt>
      <trkpt lat="45.76588" lon="4.84096">
        <ele>175</ele>
        <time>2016-09-08T06:24:43Z</time>
      </trkpt>
      <trkpt lat="45.76581" lon="4.84094">
        <ele>173</ele>
        <time>2016-09-08T06:24:54Z</time>
      </trkpt>
      <trkpt lat="45.7658" lon="4.84094">
        <ele>175</ele>
        <time>2016-09-08T06:24:55Z</time>
      </trkpt>
      <trkpt lat="45.7656" lon="4.84094">
        <ele>178</ele>
        <time>2016-09-08T06:25:06Z</time>
      </trkpt>
      <trkpt lat="45.76553" lon="4.84094">
        <ele>174</ele>
        <time>2016-09-08T06:25:09Z</time>
      </trkpt>
      <trkpt lat="45.76542" lon="4.84094">
        <ele>176</ele>
        <time>2016-09-08T06:25:15Z</time>
      </trkpt>
      <trkpt lat="45.76528" lon="4.84089">
        <ele>179</ele>
        <time>2016-09-08T06:25:24Z</time>
      </trkpt>
      <trkpt lat="45.76526" lon="4.84089">
        <ele>177</ele>
        <time>2016-09-08T06:25:25Z</time>
      </trkpt>
      <trkpt lat="45.76515" lon="4.84091">
        <ele>176</ele>
        <time>2016-09-08T06:25:31Z</time>
      </trkpt>
      <trkpt lat="45.76493" lon="4.84101">
        <ele>180</ele>
        <time>2016-09-08T06:25:40Z</time>
      </trkpt>
      <trkpt lat="45.76487" lon="4.841">
        <ele>182</ele>
        <time>2016-09-08T06:25:43Z</time>
      </trkpt>
      <trkpt lat="45.76474" lon="4.84095">
        <ele>177</ele>
        <time>2016-09-08T06:25:51Z</time>
      </trkpt>
      <trkpt lat="45.76464" lon="4.84092">
        <ele>173</ele>
        <time>2016-09-08T06:25:57Z</time>
      </trkpt>
      <trkpt lat="45.76457" lon="4.84092">
        <ele>175</ele>
        <time>2016-09-08T06:26:01Z</time>
      </trkpt>
      <trkpt lat="45.76449" lon="4.8409">
        <ele>171</ele>
        <time>2016-09-08T06:26:08Z</time>
      </trkpt>
      <trkpt lat="45.76436" lon="4.84088">
        <ele>171</ele>
        <time>2016-09-08T06:26:17Z</time>
      </trkpt>
      <trkpt lat="45.76423" lon="4.84089">
        <ele>173</ele>
        <time>2016-09-08T06:26:24Z</time>
      </trkpt>
      <trkpt lat="45.76409" lon="4.84092">
        <ele>172</ele>
        <time>2016-09-08T06:26:30Z</time>
      </trkpt>
      <trkpt lat="45.76403" lon="4.84091">
        <ele>172</ele>
        <time>2016-09-08T06:26:33Z</time>
      </trkpt>
      <trkpt lat="45.76385" lon="4.84094">
        <ele>173</ele>
        <time>2016-09-08T06:26:42Z</time>
      </trkpt>
      <trkpt lat="45.76382" lon="4.84095">
        <ele>174</ele>
        <time>2016-09-08T06:26:43Z</time>
      </trkpt>
      <trkpt lat="45.76374" lon="4.84094">
        <ele>171</ele>
        <time>2016-09-08T06:26:51Z</time>
      </trkpt>
      <trkpt lat="45.7637" lon="4.8409">
        <ele>171</ele>
        <time>2016-09-08T06:26:55Z</time>
      </trkpt>
      <trkpt lat="45.76365" lon="4.84084">
        <ele>171</ele>
        <time>2016-09-08T06:27:01Z</time>
      </trkpt>
      <trkpt lat="45.76346" lon="4.84084">
        <ele>167</ele>
        <time>2016-09-08T06:27:10Z</time>
      </trkpt>
      <trkpt lat="45.7633" lon="4.84085">
        <ele>167</ele>
        <time>2016-09-08T06:27:17Z</time>
      </trkpt>
      <trkpt lat="45.76326" lon="4.84086">
        <ele>169</ele>
        <time>2016-09-08T06:27:19Z</time>
      </trkpt>
      <trkpt lat="45.76311" lon="4.84081">
        <ele>170</ele>
        <time>2016-09-08T06:27:29Z</time>
      </trkpt>
      <trkpt lat="45.76307" lon="4.84081">
        <ele>171</ele>
        <time>2016-09-08T06:27:31Z</time>
      </trkpt>
      <trkpt lat="45.76299" lon="4.84076">
        <ele>170</ele>
        <time>2016-09-08T06:27:37Z</time>
      </trkpt>
      <trkpt lat="45.76284" lon="4.84077">
        <ele>174</ele>
        <time>2016-09-08T06:27:44Z</time>
      </trkpt>
      <trkpt lat="45.76271" lon="4.84076">
        <ele>172</ele>
        <time>2016-09-08T06:27:53Z</time>
      </trkpt>
      <trkpt lat="45.76266" lon="4.84077">
        <ele>173</ele>
        <time>2016-09-08T06:27:55Z</time>
      </trkpt>
      <trkpt lat="45.76253" lon="4.84076">
        <ele>175</ele>
        <time>2016-09-08T06:28:03Z</time>
      </trkpt>
      <trkpt lat="45.76241" lon="4.84077">
        <ele>179</ele>
        <time>2016-09-08T06:28:10Z</time>
      </trkpt>
      <trkpt lat="45.76234" lon="4.84073">
        <ele>171</ele>
        <time>2016-09-08T06:28:15Z</time>
      </trkpt>
      <trkpt lat="45.76225" lon="4.84072">
        <ele>174</ele>
        <time>2016-09-08T06:28:21Z</time>
      </trkpt>
      <trkpt lat="45.76217" lon="4.84071">
        <ele>173</ele>
        <time>2016-09-08T06:28:25Z</time>
      </trkpt>
      <trkpt lat="45.76204" lon="4.8407">
        <ele>173</ele>
        <time>2016-09-08T06:28:32Z</time>
      </trkpt>
      <trkpt lat="45.76194" lon="4.8407">
        <ele>169</ele>
        <time>2016-09-08T06:28:37Z</time>
      </trkpt>
      <trkpt lat="45.76182" lon="4.84067">
        <ele>168</ele>
        <time>2016-09-08T06:28:44Z</time>
      </trkpt>
      <trkpt lat="45.76175" lon="4.84066">
        <ele>166</ele>
        <time>2016-09-08T06:28:49Z</time>
      </trkpt>
      <trkpt lat="45.76156" lon="4.84062">
        <ele>169</ele>
        <time>2016-09-08T06:29:00Z</time>
      </trkpt>
      <trkpt lat="45.76152" lon="4.84061">
        <ele>168</ele>
        <time>2016-09-08T06:29:04Z</time>
      </trkpt>
      <trkpt lat="45.76147" lon="4.84059">
        <ele>167</ele>
        <time>2016-09-08T06:29:08Z</time>
      </trkpt>
      <trkpt lat="45.76142" lon="4.84055">
        <ele>164</ele>
        <time>2016-09-08T06:29:13Z</time>
      </trkpt>
      <trkpt lat="45.76121" lon="4.84056">
        <ele>171</ele>
        <time>2016-09-08T06:29:23Z</time>
      </trkpt>
      <trkpt lat="45.76117" lon="4.84056">
        <ele>170</ele>
        <time>2016-09-08T06:29:25Z</time>
      </trkpt>
      <trkpt lat="45.76098" lon="4.84055">
        <ele>177</ele>
        <time>2016-09-08T06:29:35Z</time>
      </trkpt>
      <trkpt lat="45.76095" lon="4.84055">
        <ele>176</ele>
        <time>2016-09-08T06:29:37Z</time>
      </trkpt>
      <trkpt lat="45.76081" lon="4.84054">
        <ele>176</ele>
        <time>2016-09-08T06:29:45Z</time>
      </trkpt>
      <trkpt lat="45.76074" lon="4.84054">
        <ele>178</ele>
        <time>2016-09-08T06:29:49Z</time>
      </trkpt>
      <trkpt lat="45.76058" lon="4.84052">
        <ele>179</ele>
        <time>2016-09-08T06:29:58Z</time>
      </trkpt>
      <trkpt lat="45.76053" lon="4.84052">
        <ele>180</ele>
        <time>2016-09-08T06:30:01Z</time>
      </trkpt>
      <trkpt lat="45.76042" lon="4.8405">
        <ele>174</ele>
        <time>2016-09-08T06:30:07Z</time>
      </trkpt>
      <trkpt lat="45.76028" lon="4.84044">
        <ele>175</ele>
        <time>2016-09-08T06:30:16Z</time>
      </trkpt>
      <trkpt lat="45.76018" lon="4.8404">
        <ele>173</ele>
        <time>2016-09-08T06:30:23Z</time>
      </trkpt>
      <trkpt lat="45.76015" lon="4.8404">
        <ele>175</ele>
        <time>2016-09-08T06:30:25Z</time>
      </trkpt>
      <trkpt lat="45.76004" lon="4.84038">
        <ele>174</ele>
        <time>2016-09-08T06:30:31Z</time>
      </trkpt>
      <trkpt lat="45.75995" lon="4.84025">
        <ele>169</ele>
        <time>2016-09-08T06:30:42Z</time>
      </trkpt>
      <trkpt lat="45.7598" lon="4.84033">
        <ele>168</ele>
        <time>2016-09-08T06:30:48Z</time>
      </trkpt>
      <trkpt lat="45.75978" lon="4.84034">
        <ele>168</ele>
        <time>2016-09-08T06:30:49Z</time>
      </trkpt>
      <trkpt lat="45.75964" lon="4.84038">
        <ele>170</ele>
        <time>2016-09-08T06:30:55Z</time>
      </trkpt>
      <trkpt lat="45.75952" lon="4.84037">
        <ele>170</ele>
        <time>2016-09-08T06:31:02Z</time>
      </trkpt>
      <trkpt lat="45.75945" lon="4.84033">
        <ele>171</ele>
        <time>2016-09-08T06:31:07Z</time>
      </trkpt>
      <trkpt lat="45.75931" lon="4.8403">
        <ele>166</ele>
        <time>2016-09-08T06:31:15Z</time>
      </trkpt>
      <trkpt lat="45.75914" lon="4.84029">
        <ele>166</ele>
        <time>2016-09-08T06:31:24Z</time>
      </trkpt>
      <trkpt lat="45.75911" lon="4.84029">
        <ele>166</ele>
        <time>2016-09-08T06:31:26Z</time>
      </trkpt>
      <trkpt lat="45.75903" lon="4.84028">
        <ele>169</ele>
        <time>2016-09-08T06:31:31Z</time>
      </trkpt>
      <trkpt lat="45.75893" lon="4.84025">
        <ele>170</ele>
        <time>2016-09-08T06:31:37Z</time>
      </trkpt>
      <trkpt lat="45.75882" lon="4.84022">
        <ele>167</ele>
        <time>2016-09-08T06:31:43Z</time>
      </trkpt>
      <trkpt lat="45.75869" lon="4.8402">
        <ele>167</ele>
        <time>2016-09-08T06:31:51Z</time>
      </trkpt>
      <trkpt lat="45.75855" lon="4.84022">
        <ele>170</ele>
        <time>2016-09-08T06:31:59Z</time>
      </trkpt>
      <trkpt lat="45.75851" lon="4.84022">
        <ele>169</ele>
        <time>2016-09-08T06:32:01Z</time>
      </trkpt>
      <trkpt lat="45.75842" lon="4.84019">
        <ele>167</ele>
        <time>2016-09-08T06:32:08Z</time>
      </trkpt>
      <trkpt lat="45.75831" lon="4.84017">
        <ele>165</ele>
        <time>2016-09-08T06:32:14Z</time>
      </trkpt>
      <trkpt lat="45.75822" lon="4.84013">
        <ele>164</ele>
        <time>2016-09-08T06:32:20Z</time>
      </trkpt>
      <trkpt lat="45.75813" lon="4.84012">
        <ele>164</ele>
        <time>2016-09-08T06:32:25Z</time>
      </trkpt>
      <trkpt lat="45.75803" lon="4.84008">
        <ele>164</ele>
        <time>2016-09-08T06:32:31Z</time>
      </trkpt>
      <trkpt lat="45.75793" lon="4.84004">
        <ele>164</ele>
        <time>2016-09-08T06:32:37Z</time>
      </trkpt>
      <trkpt lat="45.75784" lon="4.84002">
        <ele>166</ele>
        <time>2016-09-08T06:32:43Z</time>
      </trkpt>
      <trkpt lat="45.75771" lon="4.83998">
        <ele>166</ele>
        <time>2016-09-08T06:32:51Z</time>
      </trkpt>
      <trkpt lat="45.75763" lon="4.83997">
        <ele>169</ele>
        <time>2016-09-08T06:32:55Z</time>
      </trkpt>
      <trkpt lat="45.75752" lon="4.83994">
        <ele>169</ele>
        <time>2016-09-08T06:33:01Z</time>
      </trkpt>
      <trkpt lat="45.75739" lon="4.83987">
        <ele>168</ele>
        <time>2016-09-08T06:33:09Z</time>
      </trkpt>
      <trkpt lat="45.75732" lon="4.83984">
        <ele>170</ele>
        <time>2016-09-08T06:33:13Z</time>
      </trkpt>
      <trkpt lat="45.75715" lon="4.83975">
        <ele>167</ele>
        <time>2016-09-08T06:33:24Z</time>
      </trkpt>
      <trkpt lat="45.75714" lon="4.83974">
        <ele>168</ele>
        <time>2016-09-08T06:33:25Z</time>
      </trkpt>
      <trkpt lat="45.75698" lon="4.83965">
        <ele>164</ele>
        <time>2016-09-08T06:33:36Z</time>
      </trkpt>
      <trkpt lat="45.75693" lon="4.83962">
        <ele>163</ele>
        <time>2016-09-08T06:33:39Z</time>
      </trkpt>
      <trkpt lat="45.75687" lon="4.83958">
        <ele>160</ele>
        <time>2016-09-08T06:33:43Z</time>
      </trkpt>
      <trkpt lat="45.75678" lon="4.83954">
        <ele>161</ele>
        <time>2016-09-08T06:33:49Z</time>
      </trkpt>
      <trkpt lat="45.7567" lon="4.83948">
        <ele>159</ele>
        <time>2016-09-08T06:33:55Z</time>
      </trkpt>
      <trkpt lat="45.75661" lon="4.83944">
        <ele>162</ele>
        <time>2016-09-08T06:34:02Z</time>
      </trkpt>
      <trkpt lat="45.75651" lon="4.83945">
        <ele>160</ele>
        <time>2016-09-08T06:34:07Z</time>
      </trkpt>
      <trkpt lat="45.75639" lon="4.83945">
        <ele>160</ele>
        <time>2016-09-08T06:34:13Z</time>
      </trkpt>
      <trkpt lat="45.75628" lon="4.83949">
        <ele>160</ele>
        <time>2016-09-08T06:34:21Z</time>
      </trkpt>
      <trkpt lat="45.75638" lon="4.83949">
        <ele>158</ele>
        <time>2016-09-08T06:34:30Z</time>
      </trkpt>
      <trkpt lat="45.75633" lon="4.83944">
        <ele>162</ele>
        <time>2016-09-08T06:34:36Z</time>
      </trkpt>
      <trkpt lat="45.75631" lon="4.83943">
        <ele>162</ele>
        <time>2016-09-08T06:34:37Z</time>
      </trkpt>
      <trkpt lat="45.75624" lon="4.83938">
        <ele>161</ele>
        <time>2016-09-08T06:34:43Z</time>
      </trkpt>
      <trkpt lat="45.7561" lon="4.83929">
        <ele>161</ele>
        <time>2016-09-08T06:34:49Z</time>
      </trkpt>
      <trkpt lat="45.75594" lon="4.83925">
        <ele>162</ele>
        <time>2016-09-08T06:34:55Z</time>
      </trkpt>
      <trkpt lat="45.75581" lon="4.83918">
        <ele>165</ele>
        <time>2016-09-08T06:35:01Z</time>
      </trkpt>
      <trkpt lat="45.75562" lon="4.83916">
        <ele>167</ele>
        <time>2016-09-08T06:35:10Z</time>
      </trkpt>
      <trkpt lat="45.75552" lon="4.83928">
        <ele>169</ele>
        <time>2016-09-08T06:35:17Z</time>
      </trkpt>
      <trkpt lat="45.75544" lon="4.83939">
        <ele>169</ele>
        <time>2016-09-08T06:35:23Z</time>
      </trkpt>
      <trkpt lat="45.75544" lon="4.83941">
        <ele>170</ele>
        <time>2016-09-08T06:35:25Z</time>
      </trkpt>
      <trkpt lat="45.75541" lon="4.83948">
        <ele>173</ele>
        <time>2016-09-08T06:35:31Z</time>
      </trkpt>
      <trkpt lat="45.75532" lon="4.83946">
        <ele>173</ele>
        <time>2016-09-08T06:35:37Z</time>
      </trkpt>
      <trkpt lat="45.75519" lon="4.83941">
        <ele>174</ele>
        <time>2016-09-08T06:35:45Z</time>
      </trkpt>
      <trkpt lat="45.75509" lon="4.83934">
        <ele>171</ele>
        <time>2016-09-08T06:35:51Z</time>
      </trkpt>
      <trkpt lat="45.75501" lon="4.83928">
        <ele>172</ele>
        <time>2016-09-08T06:35:56Z</time>
      </trkpt>
      <trkpt lat="45.75492" lon="4.83923">
        <ele>173</ele>
        <time>2016-09-08T06:36:01Z</time>
      </trkpt>
      <trkpt lat="45.7548" lon="4.83917">
        <ele>172</ele>
        <time>2016-09-08T06:36:07Z</time>
      </trkpt>
      <trkpt lat="45.75471" lon="4.83905">
        <ele>173</ele>
        <time>2016-09-08T06:36:15Z</time>
      </trkpt>
      <trkpt lat="45.75465" lon="4.83902">
        <ele>170</ele>
        <time>2016-09-08T06:36:19Z</time>
      </trkpt>
      <trkpt lat="45.75457" lon="4.83895">
        <ele>170</ele>
        <time>2016-09-08T06:36:25Z</time>
      </trkpt>
      <trkpt lat="45.7545" lon="4.83884">
        <ele>172</ele>
        <time>2016-09-08T06:36:31Z</time>
      </trkpt>
      <trkpt lat="45.75427" lon="4.83882">
        <ele>174</ele>
        <time>2016-09-08T06:36:41Z</time>
      </trkpt>
      <trkpt lat="45.75423" lon="4.83876">
        <ele>171</ele>
        <time>2016-09-08T06:36:45Z</time>
      </trkpt>
      <trkpt lat="45.75415" lon="4.83865">
        <ele>172</ele>
        <time>2016-09-08T06:36:52Z</time>
      </trkpt>
      <trkpt lat="45.75413" lon="4.83863">
        <ele>171</ele>
        <time>2016-09-08T06:36:55Z</time>
      </trkpt>
      <trkpt lat="45.75407" lon="4.8386">
        <ele>167</ele>
        <time>2016-09-08T06:37:01Z</time>
      </trkpt>
      <trkpt lat="45.75401" lon="4.83854">
        <ele>168</ele>
        <time>2016-09-08T06:37:07Z</time>
      </trkpt>
      <trkpt lat="45.75382" lon="4.83845">
        <ele>168</ele>
        <time>2016-09-08T06:37:17Z</time>
      </trkpt>
      <trkpt lat="45.75379" lon="4.83845">
        <ele>169</ele>
        <time>2016-09-08T06:37:19Z</time>
      </trkpt>
      <trkpt lat="45.75375" lon="4.83842">
        <ele>174</ele>
        <time>2016-09-08T06:37:25Z</time>
      </trkpt>
      <trkpt lat="45.75365" lon="4.83836">
        <ele>174</ele>
        <time>2016-09-08T06:37:31Z</time>
      </trkpt>
      <trkpt lat="45.75346" lon="4.83826">
        <ele>177</ele>
        <time>2016-09-08T06:37:41Z</time>
      </trkpt>
      <trkpt lat="45.75345" lon="4.8382">
        <ele>176</ele>
        <time>2016-09-08T06:37:43Z</time>
      </trkpt>
      <trkpt lat="45.75336" lon="4.83812">
        <ele>179</ele>
        <time>2016-09-08T06:37:49Z</time>
      </trkpt>
      <trkpt lat="45.75319" lon="4.83807">
        <ele>177</ele>
        <time>2016-09-08T06:37:56Z</time>
      </trkpt>
      <trkpt lat="45.75309" lon="4.83797">
        <ele>175</ele>
        <time>2016-09-08T06:38:02Z</time>
      </trkpt>
      <trkpt lat="45.75302" lon="4.83788">
        <ele>174</ele>
        <time>2016-09-08T06:38:07Z</time>
      </trkpt>
      <trkpt lat="45.75292" lon="4.8378">
        <ele>173</ele>
        <time>2016-09-08T06:38:14Z</time>
      </trkpt>
      <trkpt lat="45.75286" lon="4.83773">
        <ele>173</ele>
        <time>2016-09-08T06:38:19Z</time>
      </trkpt>
      <trkpt lat="45.75282" lon="4.83751">
        <ele>174</ele>
        <time>2016-09-08T06:38:29Z</time>
      </trkpt>
      <trkpt lat="45.75274" lon="4.83744">
        <ele>171</ele>
        <time>2016-09-08T06:38:35Z</time>
      </trkpt>
      <trkpt lat="45.75271" lon="4.83741">
        <ele>168</ele>
        <time>2016-09-08T06:38:38Z</time>
      </trkpt>
      <trkpt lat="45.7526" lon="4.83736">
        <ele>171</ele>
        <time>2016-09-08T06:38:44Z</time>
      </trkpt>
      <trkpt lat="45.75248" lon="4.8373">
        <ele>172</ele>
        <time>2016-09-08T06:38:51Z</time>
      </trkpt>
      <trkpt lat="45.75234" lon="4.83722">
        <ele>171</ele>
        <time>2016-09-08T06:38:59Z</time>
      </trkpt>
      <trkpt lat="45.75229" lon="4.8372">
        <ele>169</ele>
        <time>2016-09-08T06:39:02Z</time>
      </trkpt>
      <trkpt lat="45.7522" lon="4.83711">
        <ele>172</ele>
        <time>2016-09-08T06:39:09Z</time>
      </trkpt>
      <trkpt lat="45.75213" lon="4.83703">
        <ele>169</ele>
        <time>2016-09-08T06:39:14Z</time>
      </trkpt>
      <trkpt lat="45.75203" lon="4.83696">
        <ele>168</ele>
        <time>2016-09-08T06:39:21Z</time>
      </trkpt>
      <trkpt lat="45.75204" lon="4.83678">
        <ele>172</ele>
        <time>2016-09-08T06:39:28Z</time>
      </trkpt>
      <trkpt lat="45.7521" lon="4.8367">
        <ele>170</ele>
        <time>2016-09-08T06:39:32Z</time>
      </trkpt>
      <trkpt lat="45.75218" lon="4.83656">
        <ele>168</ele>
        <time>2016-09-08T06:39:39Z</time>
      </trkpt>
      <trkpt lat="45.75223" lon="4.83647">
        <ele>168</ele>
        <time>2016-09-08T06:39:44Z</time>
      </trkpt>
      <trkpt lat="45.75228" lon="4.83629">
        <ele>170</ele>
        <time>2016-09-08T06:39:51Z</time>
      </trkpt>
      <trkpt lat="45.75235" lon="4.83613">
        <ele>167</ele>
        <time>2016-09-08T06:39:59Z</time>
      </trkpt>
      <trkpt lat="45.75238" lon="4.83607">
        <ele>167</ele>
        <time>2016-09-08T06:40:02Z</time>
      </trkpt>
      <trkpt lat="45.75244" lon="4.83591">
        <ele>169</ele>
        <time>2016-09-08T06:40:09Z</time>
      </trkpt>
      <trkpt lat="45.75248" lon="4.83581">
        <ele>171</ele>
        <time>2016-09-08T06:40:14Z</time>
      </trkpt>
      <trkpt lat="45.75251" lon="4.83565">
        <ele>175</ele>
        <time>2016-09-08T06:40:21Z</time>
      </trkpt>
      <trkpt lat="45.75255" lon="4.83551">
        <ele>177</ele>
        <time>2016-09-08T06:40:27Z</time>
      </trkpt>
      <trkpt lat="45.75263" lon="4.83536">
        <ele>174</ele>
        <time>2016-09-08T06:40:35Z</time>
      </trkpt>
      <trkpt lat="45.75266" lon="4.8353">
        <ele>174</ele>
        <time>2016-09-08T06:40:38Z</time>
      </trkpt>
      <trkpt lat="45.75272" lon="4.83515">
        <ele>172</ele>
        <time>2016-09-08T06:40:45Z</time>
      </trkpt>
      <trkpt lat="45.75277" lon="4.83502">
        <ele>174</ele>
        <time>2016-09-08T06:40:51Z</time>
      </trkpt>
      <trkpt lat="45.75284" lon="4.83488">
        <ele>171</ele>
        <time>2016-09-08T06:41:00Z</time>
      </trkpt>
      <trkpt lat="45.75286" lon="4.83484">
        <ele>170</ele>
        <time>2016-09-08T06:41:02Z</time>
      </trkpt>
      <trkpt lat="45.7529" lon="4.8347">
        <ele>171</ele>
        <time>2016-09-08T06:41:09Z</time>
      </trkpt>
      <trkpt lat="45.75296" lon="4.83451">
        <ele>172</ele>
        <time>2016-09-08T06:41:17Z</time>
      </trkpt>
      <trkpt lat="45.75304" lon="4.83434">
        <ele>171</ele>
        <time>2016-09-08T06:41:25Z</time>
      </trkpt>
      <trkpt lat="45.75305" lon="4.83432">
        <ele>169</ele>
        <time>2016-09-08T06:41:26Z</time>
      </trkpt>
      <trkpt lat="45.75311" lon="4.8342">
        <ele>168</ele>
        <time>2016-09-08T06:41:32Z</time>
      </trkpt>
      <trkpt lat="45.75314" lon="4.83399">
        <ele>169</ele>
        <time>2016-09-08T06:41:42Z</time>
      </trkpt>
      <trkpt lat="45.75314" lon="4.83403">
        <ele>168</ele>
        <time>2016-09-08T06:41:44Z</time>
      </trkpt>
      <trkpt lat="45.75314" lon="4.83403">
        <ele>168</ele>
        <time>2016-09-08T06:41:50Z</time>
      </trkpt>
      <trkpt lat="45.75314" lon="4.83403">
        <ele>168</ele>
        <time>2016-09-08T06:41:56Z</time>
      </trkpt>
      <trkpt lat="45.75314" lon="4.83403">
        <ele>169</ele>
        <time>2016-09-08T06:42:02Z</time>
      </trkpt>
      <trkpt lat="45.75314" lon="4.83403">
        <ele>169</ele>
        <time>2016-09-08T06:42:08Z</time>
      </trkpt>
      <trkpt lat="45.75314" lon="4.83403">
        <ele>169</ele>
        <time>2016-09-08T06:42:14Z</time>
      </trkpt>
      <trkpt lat="45.75314" lon="4.83403">
        <ele>169</ele>
        <time>2016-09-08T06:42:20Z</time>
      </trkpt>
      <trkpt lat="45.75314" lon="4.83403">
        <ele>169</ele>
        <time>2016-09-08T06:42:26Z</time>
      </trkpt>
      <trkpt lat="45.75314" lon="4.83403">
        <ele>169</ele>
        <time>2016-09-08T06:42:32Z</time>
      </trkpt>
      <trkpt lat="45.75319" lon="4.83392">
        <ele>167</ele>
        <time>2016-09-08T06:42:38Z</time>
      </trkpt>
      <trkpt lat="45.75323" lon="4.83377">
        <ele>168</ele>
        <time>2016-09-08T06:42:44Z</time>
      </trkpt>
      <trkpt lat="45.75328" lon="4.83366">
        <ele>170</ele>
        <time>2016-09-08T06:42:50Z</time>
      </trkpt>
      <trkpt lat="45.75337" lon="4.83361">
        <ele>173</ele>
        <time>2016-09-08T06:42:56Z</time>
      </trkpt>
      <trkpt lat="45.75343" lon="4.8335">
        <ele>168</ele>
        <time>2016-09-08T06:43:02Z</time>
      </trkpt>
      <trkpt lat="45.75351" lon="4.83341">
        <ele>169</ele>
        <time>2016-09-08T06:43:08Z</time>
      </trkpt>
      <trkpt lat="45.75372" lon="4.83256">
        <ele>166</ele>
        <time>2016-09-08T06:43:51Z</time>
      </trkpt>
      <trkpt lat="45.75369" lon="4.83249">
        <ele>166</ele>
        <time>2016-09-08T06:43:53Z</time>
      </trkpt>
      <trkpt lat="45.75389" lon="4.83226">
        <ele>167</ele>
        <time>2016-09-08T06:44:03Z</time>
      </trkpt>
      <trkpt lat="45.75387" lon="4.83223">
        <ele>167</ele>
        <time>2016-09-08T06:44:04Z</time>
      </trkpt>
      <trkpt lat="45.75388" lon="4.83197">
        <ele>170</ele>
        <time>2016-09-08T06:44:14Z</time>
      </trkpt>
      <trkpt lat="45.75392" lon="4.83191">
        <ele>171</ele>
        <time>2016-09-08T06:44:16Z</time>
      </trkpt>
      <trkpt lat="45.75404" lon="4.8318">
        <ele>176</ele>
        <time>2016-09-08T06:44:22Z</time>
      </trkpt>
      <trkpt lat="45.75415" lon="4.83171">
        <ele>179</ele>
        <time>2016-09-08T06:44:31Z</time>
      </trkpt>
      <trkpt lat="45.75415" lon="4.83162">
        <ele>179</ele>
        <time>2016-09-08T06:44:34Z</time>
      </trkpt>
      <trkpt lat="45.75422" lon="4.83143">
        <ele>180</ele>
        <time>2016-09-08T06:44:41Z</time>
      </trkpt>
      <trkpt lat="45.75427" lon="4.83132">
        <ele>180</ele>
        <time>2016-09-08T06:44:46Z</time>
      </trkpt>
      <trkpt lat="45.75423" lon="4.83109">
        <ele>180</ele>
        <time>2016-09-08T06:44:58Z</time>
      </trkpt>
      <trkpt lat="45.75423" lon="4.83106">
        <ele>180</ele>
        <time>2016-09-08T06:44:59Z</time>
      </trkpt>
      <trkpt lat="45.7543" lon="4.83082">
        <ele>182</ele>
        <time>2016-09-08T06:45:09Z</time>
      </trkpt>
      <trkpt lat="45.75441" lon="4.83069">
        <ele>181</ele>
        <time>2016-09-08T06:45:15Z</time>
      </trkpt>
      <trkpt lat="45.75442" lon="4.83067">
        <ele>177</ele>
        <time>2016-09-08T06:45:17Z</time>
      </trkpt>
      <trkpt lat="45.7545" lon="4.83059">
        <ele>176</ele>
        <time>2016-09-08T06:45:23Z</time>
      </trkpt>
      <trkpt lat="45.75459" lon="4.8305">
        <ele>177</ele>
        <time>2016-09-08T06:45:29Z</time>
      </trkpt>
      <trkpt lat="45.75456" lon="4.83037">
        <ele>177</ele>
        <time>2016-09-08T06:45:36Z</time>
      </trkpt>
      <trkpt lat="45.7546" lon="4.8302">
        <ele>179</ele>
        <time>2016-09-08T06:45:44Z</time>
      </trkpt>
      <trkpt lat="45.75458" lon="4.83009">
        <ele>183</ele>
        <time>2016-09-08T06:45:48Z</time>
      </trkpt>
      <trkpt lat="45.7545" lon="4.82984">
        <ele>190</ele>
        <time>2016-09-08T06:46:01Z</time>
      </trkpt>
      <trkpt lat="45.75433" lon="4.82986">
        <ele>192</ele>
        <time>2016-09-08T06:46:07Z</time>
      </trkpt>
      <trkpt lat="45.75426" lon="4.82982">
        <ele>191</ele>
        <time>2016-09-08T06:46:11Z</time>
      </trkpt>
      <trkpt lat="45.75413" lon="4.8298">
        <ele>191</ele>
        <time>2016-09-08T06:46:17Z</time>
      </trkpt>
      <trkpt lat="45.75389" lon="4.82986">
        <ele>193</ele>
        <time>2016-09-08T06:46:23Z</time>
      </trkpt>
      <trkpt lat="45.75394" lon="4.82967">
        <ele>201</ele>
        <time>2016-09-08T06:46:29Z</time>
      </trkpt>
      <trkpt lat="45.75376" lon="4.82961">
        <ele>205</ele>
        <time>2016-09-08T06:46:40Z</time>
      </trkpt>
      <trkpt lat="45.75377" lon="4.82958">
        <ele>204</ele>
        <time>2016-09-08T06:46:41Z</time>
      </trkpt>
      <trkpt lat="45.75395" lon="4.82931">
        <ele>194</ele>
        <time>2016-09-08T06:46:51Z</time>
      </trkpt>
      <trkpt lat="45.75395" lon="4.8291">
        <ele>199</ele>
        <time>2016-09-08T06:46:58Z</time>
      </trkpt>
      <trkpt lat="45.75394" lon="4.82907">
        <ele>199</ele>
        <time>2016-09-08T06:46:59Z</time>
      </trkpt>
      <trkpt lat="45.75395" lon="4.82892">
        <ele>196</ele>
        <time>2016-09-08T06:47:05Z</time>
      </trkpt>
      <trkpt lat="45.754" lon="4.82892">
        <ele>188</ele>
        <time>2016-09-08T06:47:14Z</time>
      </trkpt>
      <trkpt lat="45.75402" lon="4.82886">
        <ele>184</ele>
        <time>2016-09-08T06:47:17Z</time>
      </trkpt>
    </trkseg>
  </trk>
</gpx>